Time,TemperatureF,DewpointF,PressureIn,WindDirection,WindDirectionDegrees,WindSpeedMPH,WindSpeedGustMPH,Humidity,HourlyPrecipIn,Conditions,Clouds,dailyrainin,SoftwareType,DateUTC
2013-02-14 00:00:00,72.2,68.2,30.05,WSW,255,2.2,4.8,87,0.00,,---,0.00,VWS V14.01,2013-02-14 05:00:00,
2013-02-14 00:01:00,63.4,62.0,30.09,East,87,4.7,10.6,95,0.00,,---,0.00,VWS V14.01,2013-02-14 05:01:00,
2013-02-14 00:02:00,63.5,62.1,30.09,ESE,117,5.0,10.6,95,0.00,,---,0.00,VWS V14.01,2013-02-14 05:02:00,
2013-02-14 00:03:00,63.4,62.0,30.09,SE,134,0.0,10.6,95,0.00,,---,0.00,VWS V14.01,2013-02-14 05:03:00,
2013-02-14 00:04:00,63.5,62.1,30.09,NW,308,0.9,10.6,95,0.00,,---,0.00,VWS V14.01,2013-02-14 05:04:00,
2013-02-14 00:05:00,72.2,68.2,30.05,WSW,242,2.5,3.8,87,0.00,,---,0.00,VWS V14.01,2013-02-14 05:05:00,
2013-02-14 00:06:00,63.6,62.2,30.08,NE,38,0.7,10.6,95,0.00,,---,0.00,VWS V14.01,2013-02-14 05:06:00,
2013-02-14 00:07:00,63.5,62.1,30.08,NNE,24,0.0,10.6,95,0.00,,---,0.00,VWS V14.01,2013-02-14 05:07:00,
2013-02-14 00:08:00,63.6,62.2,30.08,North,1,0.0,10.6,95,0.00,,---,0.00,VWS V14.01,2013-02-14 05:08:00,
2013-02-14 00:09:00,63.8,62.4,30.08,North,1,0.0,10.6,95,0.00,,---,0.00,VWS V14.01,2013-02-14 05:09:00,
2013-02-14 00:10:00,72.0,68.2,30.05,WSW,242,2.4,4.5,88,0.00,,---,0.00,VWS V14.01,2013-02-14 05:10:00,
2013-02-14 00:11:00,63.6,62.2,30.09,North,1,0.0,10.6,95,0.00,,---,0.00,VWS V14.01,2013-02-14 05:11:00,
2013-02-14 00:12:00,63.8,62.4,30.09,NE,41,1.3,10.6,95,0.00,,---,0.00,VWS V14.01,2013-02-14 05:12:00,
2013-02-14 00:13:00,63.7,62.3,30.09,NE,42,0.0,10.6,95,0.00,,---,0.00,VWS V14.01,2013-02-14 05:13:00,
2013-02-14 00:15:00,72.0,68.2,30.05,SW,218,0.0,0.0,88,0.00,,---,0.00,VWS V14.01,2013-02-14 05:15:00,
2013-02-14 00:20:00,71.9,68.1,30.05,SW,225,0.0,0.0,88,0.00,,---,0.00,VWS V14.01,2013-02-14 05:20:00,
2013-02-14 00:25:00,72.0,68.3,30.05,WSW,248,1.9,2.1,88,0.00,,---,0.00,VWS V14.01,2013-02-14 05:25:00,
2013-02-14 00:26:00,71.8,68.0,30.05,WSW,248,0.0,1.9,88,0.00,,---,0.00,VWS V14.01,2013-02-14 05:26:00,
2013-02-14 00:30:00,71.9,68.1,30.05,WSW,248,0.0,0.0,88,0.00,,---,0.00,VWS V14.01,2013-02-14 05:30:00,
2013-02-14 00:31:00,71.9,68.1,30.05,WSW,248,0.0,0.0,88,0.00,,---,0.00,VWS V14.01,2013-02-14 05:31:00,
2013-02-14 00:35:00,71.8,68.1,30.05,SW,235,0.0,0.0,88,0.00,,---,0.00,VWS V14.01,2013-02-14 05:35:00,
2013-02-14 00:36:00,72.0,68.3,30.05,SW,235,0.0,0.0,88,0.00,,---,0.00,VWS V14.01,2013-02-14 05:36:00,
2013-02-14 00:40:00,71.8,68.1,30.05,SW,235,0.0,0.0,88,0.00,,---,0.00,VWS V14.01,2013-02-14 05:40:00,
2013-02-14 00:41:00,71.7,68.0,30.05,SW,235,0.0,0.0,88,0.00,,---,0.00,VWS V14.01,2013-02-14 05:41:00,
2013-02-14 00:45:00,71.6,68.0,30.05,SW,235,0.0,0.0,88,0.00,,---,0.00,VWS V14.01,2013-02-14 05:45:00,
2013-02-14 00:46:00,71.8,68.2,30.05,SW,235,0.0,0.0,88,0.00,,---,0.00,VWS V14.01,2013-02-14 05:46:00,
2013-02-14 00:50:00,71.8,68.2,30.05,SW,228,0.0,0.0,88,0.00,,---,0.00,VWS V14.01,2013-02-14 05:50:00,
2013-02-14 00:51:00,71.8,68.2,30.05,SW,228,0.0,0.0,88,0.00,,---,0.00,VWS V14.01,2013-02-14 05:51:00,
2013-02-14 00:55:00,71.6,68.0,30.05,SW,228,0.0,0.0,88,0.00,,---,0.00,VWS V14.01,2013-02-14 05:55:00,
2013-02-14 00:56:00,71.7,68.1,30.05,SW,228,0.0,0.0,88,0.00,,---,0.00,VWS V14.01,2013-02-14 05:56:00,
2013-02-14 01:01:00,71.6,68.1,30.04,SW,228,0.0,0.0,89,0.00,,---,0.00,VWS V14.01,2013-02-14 06:01:00,
2013-02-14 01:06:00,71.5,68.0,30.04,SW,228,0.0,0.0,89,0.00,,---,0.00,VWS V14.01,2013-02-14 06:06:00,
2013-02-14 01:11:00,71.5,68.0,30.04,SW,228,0.0,0.0,89,0.00,,---,0.00,VWS V14.01,2013-02-14 06:11:00,
2013-02-14 01:12:00,71.3,67.8,30.04,SW,228,0.0,0.0,89,0.00,,---,0.00,VWS V14.01,2013-02-14 06:12:00,
2013-02-14 01:16:00,71.2,67.7,30.03,SW,228,0.0,0.0,89,0.00,,---,0.00,VWS V14.01,2013-02-14 06:16:00,
2013-02-14 01:17:00,71.3,67.8,30.04,SW,228,0.0,0.0,89,0.00,,---,0.00,VWS V14.01,2013-02-14 06:17:00,
2013-02-14 01:21:00,71.0,67.6,30.04,SW,228,0.0,0.0,89,0.00,,---,0.00,VWS V14.01,2013-02-14 06:21:00,
2013-02-14 01:22:00,71.1,67.7,30.04,SW,228,0.0,0.0,89,0.00,,---,0.00,VWS V14.01,2013-02-14 06:22:00,
2013-02-14 01:26:00,71.0,67.6,30.04,SW,228,0.0,0.0,89,0.00,,---,0.00,VWS V14.01,2013-02-14 06:26:00,
2013-02-14 01:27:00,71.1,67.7,30.04,SW,228,0.0,0.0,89,0.00,,---,0.00,VWS V14.01,2013-02-14 06:27:00,
2013-02-14 01:31:00,70.9,67.5,30.03,SW,228,0.0,0.0,89,0.00,,---,0.00,VWS V14.01,2013-02-14 06:31:00,
2013-02-14 01:32:00,70.9,67.5,30.04,SW,228,0.0,0.0,89,0.00,,---,0.00,VWS V14.01,2013-02-14 06:32:00,
2013-02-14 01:36:00,70.9,67.5,30.03,SW,228,0.0,0.0,89,0.00,,---,0.00,VWS V14.01,2013-02-14 06:36:00,
2013-02-14 01:37:00,70.7,67.3,30.03,SW,228,0.0,0.0,89,0.00,,---,0.00,VWS V14.01,2013-02-14 06:37:00,
2013-02-14 01:41:00,70.5,67.1,30.04,SW,228,0.0,0.0,89,0.00,,---,0.00,VWS V14.01,2013-02-14 06:41:00,
2013-02-14 01:42:00,70.7,67.4,30.04,SW,228,0.0,0.0,89,0.00,,---,0.00,VWS V14.01,2013-02-14 06:42:00,
2013-02-14 01:46:00,70.6,67.4,30.03,SW,228,0.0,0.0,90,0.00,,---,0.00,VWS V14.01,2013-02-14 06:46:00,
2013-02-14 01:47:00,70.7,67.5,30.03,SW,228,0.0,0.0,90,0.00,,---,0.00,VWS V14.01,2013-02-14 06:47:00,
2013-02-14 01:48:00,70.8,67.6,30.03,SW,228,0.0,0.0,90,0.00,,---,0.00,VWS V14.01,2013-02-14 06:48:00,
2013-02-14 01:51:00,70.9,67.7,30.03,SW,228,0.0,0.0,90,0.00,,---,0.00,VWS V14.01,2013-02-14 06:51:00,
2013-02-14 01:52:00,71.0,67.8,30.03,SW,228,0.0,0.0,90,0.00,,---,0.00,VWS V14.01,2013-02-14 06:52:00,
2013-02-14 01:53:00,70.9,67.7,30.03,SW,228,0.0,0.0,90,0.00,,---,0.00,VWS V14.01,2013-02-14 06:53:00,
2013-02-14 01:56:00,71.0,67.8,30.03,SW,228,0.0,0.0,90,0.00,,---,0.00,VWS V14.01,2013-02-14 06:56:00,
2013-02-14 01:57:00,70.8,67.5,30.03,SW,228,0.0,0.0,89,0.00,,---,0.00,VWS V14.01,2013-02-14 06:57:00,
2013-02-14 01:58:00,70.9,67.6,30.03,SW,228,0.0,0.0,89,0.00,,---,0.00,VWS V14.01,2013-02-14 06:58:00,
2013-02-14 02:01:00,70.8,67.5,30.03,SW,228,0.0,0.0,89,0.00,,---,0.00,VWS V14.01,2013-02-14 07:01:00,
2013-02-14 02:02:00,70.7,67.4,30.03,SW,228,0.0,0.0,89,0.00,,---,0.00,VWS V14.01,2013-02-14 07:02:00,
2013-02-14 02:03:00,70.9,67.6,30.03,SW,228,0.0,0.0,89,0.00,,---,0.00,VWS V14.01,2013-02-14 07:03:00,
2013-02-14 02:06:00,70.6,67.4,30.03,SW,228,0.0,0.0,90,0.00,,---,0.00,VWS V14.01,2013-02-14 07:06:00,
2013-02-14 02:07:00,70.5,67.3,30.03,SW,228,0.0,0.0,90,0.00,,---,0.00,VWS V14.01,2013-02-14 07:07:00,
2013-02-14 02:08:00,70.5,67.3,30.03,SW,228,0.0,0.0,90,0.00,,---,0.00,VWS V14.01,2013-02-14 07:08:00,
2013-02-14 02:11:00,70.3,67.1,30.03,SW,228,0.0,0.0,90,0.00,,---,0.00,VWS V14.01,2013-02-14 07:11:00,
2013-02-14 02:12:00,70.2,67.0,30.03,SW,228,0.0,0.0,90,0.00,,---,0.00,VWS V14.01,2013-02-14 07:12:00,
2013-02-14 02:13:00,70.2,67.0,30.03,SW,228,0.0,0.0,90,0.00,,---,0.00,VWS V14.01,2013-02-14 07:13:00,
2013-02-14 02:16:00,70.2,67.0,30.03,SW,228,0.0,0.0,90,0.00,,---,0.00,VWS V14.01,2013-02-14 07:16:00,
2013-02-14 02:17:00,70.1,67.0,30.03,SW,228,0.0,0.0,90,0.00,,---,0.00,VWS V14.01,2013-02-14 07:17:00,
2013-02-14 02:18:00,70.2,67.1,30.03,SW,228,0.0,0.0,90,0.00,,---,0.00,VWS V14.01,2013-02-14 07:18:00,
2013-02-14 02:21:00,70.1,67.0,30.03,SW,228,0.0,0.0,90,0.00,,---,0.00,VWS V14.01,2013-02-14 07:21:00,
2013-02-14 02:23:00,70.3,67.3,30.02,SW,228,0.0,0.0,90,0.00,,---,0.00,VWS V14.01,2013-02-14 07:23:00,
2013-02-14 02:27:00,70.3,67.3,30.03,SW,228,0.0,0.0,90,0.00,,---,0.00,VWS V14.01,2013-02-14 07:27:00,
2013-02-14 02:28:00,70.2,67.1,30.03,SW,228,0.0,0.0,90,0.00,,---,0.00,VWS V14.01,2013-02-14 07:28:00,
2013-02-14 02:29:00,70.3,67.2,30.03,SW,228,0.0,0.0,90,0.00,,---,0.00,VWS V14.01,2013-02-14 07:29:00,
2013-02-14 02:32:00,70.1,67.0,30.03,SW,228,0.0,0.0,90,0.00,,---,0.00,VWS V14.01,2013-02-14 07:32:00,
2013-02-14 02:33:00,70.2,67.1,30.03,SW,228,0.0,0.0,90,0.00,,---,0.00,VWS V14.01,2013-02-14 07:33:00,
2013-02-14 02:34:00,70.0,66.9,30.02,SW,228,0.0,0.0,90,0.00,,---,0.00,VWS V14.01,2013-02-14 07:34:00,
2013-02-14 02:37:00,69.8,66.8,30.02,SW,228,0.0,0.0,90,0.00,,---,0.00,VWS V14.01,2013-02-14 07:37:00,
2013-02-14 02:38:00,69.9,66.9,30.02,SW,228,0.0,0.0,90,0.00,,---,0.00,VWS V14.01,2013-02-14 07:38:00,
2013-02-14 02:39:00,69.8,66.8,30.02,SW,228,0.0,0.0,90,0.00,,---,0.00,VWS V14.01,2013-02-14 07:39:00,
2013-02-14 02:42:00,69.8,66.8,30.02,SW,228,0.0,0.0,90,0.00,,---,0.00,VWS V14.01,2013-02-14 07:42:00,
2013-02-14 02:43:00,69.5,66.5,30.03,SW,228,0.0,0.0,90,0.00,,---,0.00,VWS V14.01,2013-02-14 07:43:00,
2013-02-14 02:44:00,69.7,66.7,30.03,SW,228,0.0,0.0,90,0.00,,---,0.00,VWS V14.01,2013-02-14 07:44:00,
2013-02-14 02:47:00,69.8,66.8,30.03,SW,228,0.0,0.0,90,0.00,,---,0.00,VWS V14.01,2013-02-14 07:47:00,
2013-02-14 02:48:00,69.7,66.8,30.03,SW,228,0.0,0.0,90,0.00,,---,0.00,VWS V14.01,2013-02-14 07:48:00,
2013-02-14 02:49:00,69.7,66.8,30.03,SW,228,0.0,0.0,90,0.00,,---,0.00,VWS V14.01,2013-02-14 07:49:00,
2013-02-14 02:52:00,69.8,66.9,30.02,SW,228,0.0,0.0,90,0.00,,---,0.00,VWS V14.01,2013-02-14 07:52:00,
2013-02-14 02:54:00,69.8,66.9,30.02,SW,228,0.0,0.0,90,0.00,,---,0.00,VWS V14.01,2013-02-14 07:54:00,
2013-02-14 02:57:00,69.9,67.0,30.02,SW,228,0.0,0.0,90,0.00,,---,0.00,VWS V14.01,2013-02-14 07:57:00,
2013-02-14 02:59:00,69.8,66.9,30.03,SW,228,0.0,0.0,90,0.00,,---,0.00,VWS V14.01,2013-02-14 07:59:00,
2013-02-14 03:02:00,69.6,66.7,30.03,SW,228,0.0,0.0,91,0.00,,---,0.00,VWS V14.01,2013-02-14 08:02:00,
2013-02-14 03:04:00,69.7,66.9,30.03,SW,228,0.0,0.0,91,0.00,,---,0.00,VWS V14.01,2013-02-14 08:04:00,
2013-02-14 03:05:00,69.8,66.9,30.03,SW,228,0.0,0.0,91,0.00,,---,0.00,VWS V14.01,2013-02-14 08:05:00,
2013-02-14 03:07:00,69.8,67.0,30.03,North,350,1.7,2.8,91,0.00,,---,0.00,VWS V14.01,2013-02-14 08:07:00,
2013-02-14 03:09:00,70.0,67.3,30.03,NNW,338,0.4,3.9,91,0.00,,---,0.00,VWS V14.01,2013-02-14 08:09:00,
2013-02-14 03:10:00,70.1,67.4,30.03,NNW,332,1.4,2.0,91,0.00,,---,0.00,VWS V14.01,2013-02-14 08:10:00,
2013-02-14 03:12:00,70.4,67.7,30.03,NW,318,4.4,6.6,91,0.00,,---,0.00,VWS V14.01,2013-02-14 08:12:00,
2013-02-14 03:14:00,70.5,67.8,30.03,NW,316,3.1,4.3,91,0.00,,---,0.00,VWS V14.01,2013-02-14 08:14:00,
2013-02-14 03:15:00,70.5,67.8,30.03,NNW,343,3.2,4.3,91,0.00,,---,0.00,VWS V14.01,2013-02-14 08:15:00,
2013-02-14 03:18:00,70.6,67.8,30.03,NW,321,0.0,0.0,91,0.00,,---,0.00,VWS V14.01,2013-02-14 08:18:00,
2013-02-14 03:19:00,70.6,67.8,30.03,NW,321,0.0,0.0,91,0.00,,---,0.00,VWS V14.01,2013-02-14 08:19:00,
2013-02-14 03:20:00,70.6,67.8,30.03,NW,321,0.0,0.0,91,0.00,,---,0.00,VWS V14.01,2013-02-14 08:20:00,
2013-02-14 03:23:00,70.7,68.0,30.02,NW,315,0.7,3.0,91,0.00,,---,0.00,VWS V14.01,2013-02-14 08:23:00,
2013-02-14 03:24:00,70.8,68.1,30.02,NW,304,0.0,0.0,91,0.00,,---,0.00,VWS V14.01,2013-02-14 08:24:00,
2013-02-14 03:25:00,70.7,68.0,30.02,North,359,3.3,3.3,91,0.00,,---,0.00,VWS V14.01,2013-02-14 08:25:00,
2013-02-14 03:28:00,70.8,68.1,30.02,NNW,329,0.0,0.0,91,0.00,,---,0.00,VWS V14.01,2013-02-14 08:28:00,
2013-02-14 03:29:00,70.9,68.2,30.02,NNW,328,0.0,0.0,91,0.00,,---,0.00,VWS V14.01,2013-02-14 08:29:00,
2013-02-14 03:30:00,70.8,68.1,30.02,NNW,328,0.0,0.0,91,0.00,,---,0.00,VWS V14.01,2013-02-14 08:30:00,
2013-02-14 03:33:00,70.9,68.2,30.03,NNW,328,0.0,0.0,91,0.00,,---,0.00,VWS V14.01,2013-02-14 08:33:00,
2013-02-14 03:34:00,70.9,68.2,30.03,NNW,328,0.0,0.0,91,0.00,,---,0.00,VWS V14.01,2013-02-14 08:34:00,
2013-02-14 03:35:00,70.7,67.9,30.03,NNW,328,0.0,0.0,91,0.00,,---,0.00,VWS V14.01,2013-02-14 08:35:00,
2013-02-14 03:38:00,70.8,68.1,30.03,NNW,328,0.0,0.0,91,0.00,,---,0.00,VWS V14.01,2013-02-14 08:38:00,
2013-02-14 03:39:00,70.8,68.1,30.02,NNW,328,0.0,0.0,91,0.00,,---,0.00,VWS V14.01,2013-02-14 08:39:00,
2013-02-14 03:40:00,70.8,68.1,30.02,NNW,328,0.0,0.0,91,0.00,,---,0.00,VWS V14.01,2013-02-14 08:40:00,
2013-02-14 03:43:00,70.8,68.1,30.03,NNW,345,0.0,0.0,91,0.00,,---,0.00,VWS V14.01,2013-02-14 08:43:00,
2013-02-14 03:45:00,70.8,68.1,30.03,NNW,345,0.0,0.0,91,0.00,,---,0.00,VWS V14.01,2013-02-14 08:45:00,
2013-02-14 03:46:00,71.0,68.3,30.02,NNW,345,0.0,0.0,91,0.00,,---,0.00,VWS V14.01,2013-02-14 08:46:00,
2013-02-14 03:48:00,71.0,68.3,30.03,NNW,345,0.0,0.0,91,0.00,,---,0.00,VWS V14.01,2013-02-14 08:48:00,
2013-02-14 03:50:00,70.9,68.2,30.02,NNW,345,0.0,0.0,91,0.00,,---,0.00,VWS V14.01,2013-02-14 08:50:00,
2013-02-14 03:51:00,70.8,68.1,30.02,NNW,345,0.0,0.0,91,0.00,,---,0.00,VWS V14.01,2013-02-14 08:51:00,
2013-02-14 03:53:00,70.9,68.2,30.03,NNW,345,0.0,0.0,91,0.00,,---,0.00,VWS V14.01,2013-02-14 08:53:00,
2013-02-14 03:55:00,70.9,68.3,30.03,NNW,345,0.0,0.0,91,0.00,,---,0.00,VWS V14.01,2013-02-14 08:55:00,
2013-02-14 03:56:00,71.0,68.4,30.03,NNW,345,0.0,0.0,91,0.00,,---,0.00,VWS V14.01,2013-02-14 08:56:00,
2013-02-14 03:58:00,70.9,68.2,30.03,NNW,345,0.0,0.0,91,0.00,,---,0.00,VWS V14.01,2013-02-14 08:58:00,
2013-02-14 04:00:00,71.0,68.3,30.03,NNW,345,0.0,0.0,91,0.00,,---,0.00,VWS V14.01,2013-02-14 09:00:00,
2013-02-14 04:01:00,70.9,68.2,30.03,NNW,345,0.0,0.0,91,0.00,,---,0.00,VWS V14.01,2013-02-14 09:01:00,
2013-02-14 04:03:00,71.0,68.4,30.03,NNW,345,0.0,0.0,91,0.00,,---,0.00,VWS V14.01,2013-02-14 09:03:00,
2013-02-14 04:05:00,71.1,68.5,30.03,NNW,345,0.0,0.0,91,0.00,,---,0.00,VWS V14.01,2013-02-14 09:05:00,
2013-02-14 04:06:00,71.1,68.5,30.03,NNW,345,0.0,0.0,91,0.00,,---,0.00,VWS V14.01,2013-02-14 09:06:00,
2013-02-14 04:08:00,71.2,68.6,30.03,NNW,345,0.0,0.0,91,0.00,,---,0.00,VWS V14.01,2013-02-14 09:08:00,
2013-02-14 04:10:00,71.0,68.4,30.03,NNW,345,0.0,0.0,91,0.00,,---,0.00,VWS V14.01,2013-02-14 09:10:00,
2013-02-14 04:11:00,71.0,68.4,30.03,NNW,345,0.0,0.0,91,0.00,,---,0.00,VWS V14.01,2013-02-14 09:11:00,
2013-02-14 04:13:00,71.0,68.4,30.03,NW,307,1.9,2.1,92,0.00,,---,0.00,VWS V14.01,2013-02-14 09:13:00,
2013-02-14 04:15:00,71.1,68.5,30.03,NNW,332,0.7,1.0,92,0.00,,---,0.00,VWS V14.01,2013-02-14 09:15:00,
2013-02-14 04:16:00,70.9,68.3,30.03,NNW,332,0.0,0.0,92,0.00,,---,0.00,VWS V14.01,2013-02-14 09:16:00,
2013-02-14 04:18:00,70.9,68.3,30.03,NNW,332,0.0,0.0,92,0.00,,---,0.00,VWS V14.01,2013-02-14 09:18:00,
2013-02-14 04:20:00,71.0,68.4,30.04,NW,322,3.2,3.2,92,0.00,,---,0.00,VWS V14.01,2013-02-14 09:20:00,
2013-02-14 04:21:00,71.1,68.5,30.04,North,352,0.0,0.2,92,0.00,,---,0.00,VWS V14.01,2013-02-14 09:21:00,
2013-02-14 04:23:00,71.0,68.4,30.04,WNW,301,0.0,0.0,92,0.00,,---,0.00,VWS V14.01,2013-02-14 09:23:00,
2013-02-14 04:25:00,71.0,68.4,30.04,WNW,301,0.0,0.0,92,0.00,,---,0.00,VWS V14.01,2013-02-14 09:25:00,
2013-02-14 04:26:00,70.9,68.3,30.04,WNW,301,0.0,0.0,92,0.00,,---,0.00,VWS V14.01,2013-02-14 09:26:00,
2013-02-14 04:28:00,71.1,68.5,30.03,WNW,301,0.0,0.0,92,0.00,,---,0.00,VWS V14.01,2013-02-14 09:28:00,
2013-02-14 04:30:00,71.2,68.7,30.03,WNW,301,0.0,0.0,92,0.00,,---,0.00,VWS V14.01,2013-02-14 09:30:00,
2013-02-14 04:31:00,71.1,68.6,30.04,WNW,301,0.0,0.0,92,0.00,,---,0.00,VWS V14.01,2013-02-14 09:31:00,
2013-02-14 04:33:00,70.9,68.3,30.04,WNW,301,0.0,0.0,92,0.00,,---,0.00,VWS V14.01,2013-02-14 09:33:00,
2013-02-14 04:36:00,71.3,68.7,30.04,WNW,301,0.0,0.0,92,0.00,,---,0.00,VWS V14.01,2013-02-14 09:36:00,
2013-02-14 04:38:00,71.0,68.4,30.04,WNW,301,0.0,0.0,92,0.00,,---,0.00,VWS V14.01,2013-02-14 09:38:00,
2013-02-14 04:41:00,71.0,68.4,30.04,WNW,301,0.0,0.0,92,0.00,,---,0.00,VWS V14.01,2013-02-14 09:41:00,
2013-02-14 04:43:00,71.0,68.4,30.03,North,3,0.0,0.0,92,0.00,,---,0.00,VWS V14.01,2013-02-14 09:43:00,
2013-02-14 04:46:00,70.9,68.4,30.03,North,3,0.0,0.0,92,0.00,,---,0.00,VWS V14.01,2013-02-14 09:46:00,
2013-02-14 04:47:00,71.1,68.6,30.03,North,3,0.0,0.0,92,0.00,,---,0.00,VWS V14.01,2013-02-14 09:47:00,
2013-02-14 04:49:00,71.1,68.6,30.03,NNW,335,2.2,4.0,92,0.00,,---,0.00,VWS V14.01,2013-02-14 09:49:00,
2013-02-14 04:51:00,70.7,68.1,30.04,North,6,1.7,3.9,92,0.00,,---,0.00,VWS V14.01,2013-02-14 09:51:00,
2013-02-14 04:52:00,70.8,68.3,30.04,North,354,0.0,2.4,92,0.00,,---,0.00,VWS V14.01,2013-02-14 09:52:00,
2013-02-14 04:54:00,70.7,68.2,30.04,North,8,0.8,3.5,92,0.00,,---,0.00,VWS V14.01,2013-02-14 09:54:00,
2013-02-14 04:56:00,70.6,68.1,30.04,NNW,340,2.9,5.0,92,0.00,,---,0.00,VWS V14.01,2013-02-14 09:56:00,
2013-02-14 04:57:00,70.6,68.1,30.04,North,6,1.0,3.7,92,0.00,,---,0.00,VWS V14.01,2013-02-14 09:57:00,
2013-02-14 04:59:00,70.3,67.8,30.03,NNW,339,0.0,0.0,92,0.00,,---,0.00,VWS V14.01,2013-02-14 09:59:00,
2013-02-14 05:01:00,70.2,67.6,30.03,North,8,3.9,6.0,92,0.00,,---,0.00,VWS V14.01,2013-02-14 10:01:00,
2013-02-14 05:02:00,70.2,67.6,30.03,NNW,329,1.1,4.6,91,0.00,,---,0.00,VWS V14.01,2013-02-14 10:02:00,
2013-02-14 05:04:00,69.7,67.0,30.03,North,352,2.9,6.9,91,0.00,,---,0.00,VWS V14.01,2013-02-14 10:04:00,
2013-02-14 05:06:00,69.5,66.9,30.03,WNW,295,0.0,3.5,91,0.00,,---,0.00,VWS V14.01,2013-02-14 10:06:00,
2013-02-14 05:07:00,69.4,66.8,30.04,WNW,295,0.0,0.0,91,0.00,,---,0.00,VWS V14.01,2013-02-14 10:07:00,
2013-02-14 05:09:00,69.1,66.5,30.03,NE,39,0.8,3.5,91,0.00,,---,0.00,VWS V14.01,2013-02-14 10:09:00,
2013-02-14 05:11:00,69.0,66.4,30.03,NNW,335,1.5,4.5,92,0.00,,---,0.00,VWS V14.01,2013-02-14 10:11:00,
2013-02-14 05:12:00,68.8,66.2,30.03,NE,55,1.1,2.7,92,0.00,,---,0.00,VWS V14.01,2013-02-14 10:12:00,
2013-02-14 05:14:00,68.4,65.8,30.03,North,349,2.8,2.9,91,0.00,,---,0.00,VWS V14.01,2013-02-14 10:14:00,
2013-02-14 05:16:00,68.4,65.8,30.03,NNE,17,1.3,1.7,92,0.00,,---,0.00,VWS V14.01,2013-02-14 10:16:00,
2013-02-14 05:17:00,68.3,65.8,30.03,NNE,17,0.0,1.7,92,0.00,,---,0.00,VWS V14.01,2013-02-14 10:17:00,
2013-02-14 05:19:00,68.3,65.8,30.03,NNE,17,0.0,0.0,92,0.00,,---,0.00,VWS V14.01,2013-02-14 10:19:00,
2013-02-14 05:21:00,68.3,65.8,30.03,NNE,17,0.0,0.0,92,0.00,,---,0.00,VWS V14.01,2013-02-14 10:21:00,
2013-02-14 05:22:00,68.3,65.8,30.04,NNE,17,0.0,0.0,92,0.00,,---,0.00,VWS V14.01,2013-02-14 10:22:00,
2013-02-14 05:24:00,68.2,65.7,30.04,NE,39,3.2,3.2,92,0.00,,---,0.00,VWS V14.01,2013-02-14 10:24:00,
2013-02-14 05:27:00,68.2,65.7,30.04,East,87,1.8,4.6,92,0.00,,---,0.00,VWS V14.01,2013-02-14 10:27:00,
2013-02-14 05:29:00,68.2,65.7,30.04,ENE,58,3.2,3.2,92,0.00,,---,0.00,VWS V14.01,2013-02-14 10:29:00,
2013-02-14 05:32:00,68.0,65.5,30.03,NW,319,0.0,3.1,92,0.00,,---,0.00,VWS V14.01,2013-02-14 10:32:00,
2013-02-14 05:34:00,68.1,65.6,30.03,ENE,70,0.9,0.9,92,0.00,,---,0.00,VWS V14.01,2013-02-14 10:34:00,
2013-02-14 05:37:00,68.1,65.6,30.03,WNW,302,0.8,5.3,92,0.00,,---,0.00,VWS V14.01,2013-02-14 10:37:00,
2013-02-14 05:39:00,68.0,65.5,30.04,NNW,336,0.0,1.9,92,0.00,,---,0.00,VWS V14.01,2013-02-14 10:39:00,
2013-02-14 05:42:00,68.0,65.4,30.04,NE,53,2.4,4.2,92,0.00,,---,0.00,VWS V14.01,2013-02-14 10:42:00,
2013-02-14 05:44:00,67.9,65.4,30.04,NNW,347,0.0,0.0,92,0.00,,---,0.00,VWS V14.01,2013-02-14 10:44:00,
2013-02-14 05:47:00,68.0,65.4,30.04,NNE,32,5.2,5.2,92,0.00,,---,0.00,VWS V14.01,2013-02-14 10:47:00,
2013-02-14 05:49:00,68.0,65.4,30.04,NNW,340,0.0,0.0,92,0.00,,---,0.00,VWS V14.01,2013-02-14 10:49:00,
2013-02-14 05:52:00,68.0,65.4,30.04,East,82,0.0,0.0,92,0.00,,---,0.00,VWS V14.01,2013-02-14 10:52:00,
2013-02-14 05:53:00,68.1,65.5,30.04,East,82,0.0,0.0,91,0.00,,---,0.00,VWS V14.01,2013-02-14 10:53:00,
2013-02-14 05:54:00,68.2,65.6,30.04,East,82,0.0,0.0,91,0.00,,---,0.00,VWS V14.01,2013-02-14 10:54:00,
2013-02-14 05:57:00,68.2,65.5,30.04,NNE,13,0.0,0.0,91,0.00,,---,0.00,VWS V14.01,2013-02-14 10:57:00,
2013-02-14 05:58:00,68.0,65.3,30.04,NNE,13,0.0,0.0,91,0.00,,---,0.00,VWS V14.01,2013-02-14 10:58:00,
2013-02-14 05:59:00,68.1,65.4,30.04,NW,308,1.2,2.7,91,0.00,,---,0.00,VWS V14.01,2013-02-14 10:59:00,
2013-02-14 06:02:00,67.9,65.2,30.04,SSE,150,0.0,0.0,91,0.00,,---,0.00,VWS V14.01,2013-02-14 11:02:00,
2013-02-14 06:03:00,68.0,65.3,30.04,SSE,150,0.0,0.0,91,0.00,,---,0.00,VWS V14.01,2013-02-14 11:03:00,
2013-02-14 06:05:00,68.0,65.3,30.04,SE,136,1.2,2.9,91,0.00,,---,0.00,VWS V14.01,2013-02-14 11:05:00,
2013-02-14 06:07:00,68.0,65.2,30.04,East,86,0.0,0.0,91,0.00,,---,0.00,VWS V14.01,2013-02-14 11:07:00,
2013-02-14 06:08:00,68.0,65.2,30.04,NNE,15,1.7,2.8,91,0.00,,---,0.00,VWS V14.01,2013-02-14 11:08:00,
2013-02-14 06:10:00,68.0,65.2,30.05,East,89,1.1,3.1,91,0.00,,---,0.00,VWS V14.01,2013-02-14 11:10:00,
2013-02-14 06:12:00,68.0,65.2,30.05,ESE,104,2.1,3.2,91,0.00,,---,0.00,VWS V14.01,2013-02-14 11:12:00,
2013-02-14 06:13:00,68.0,65.2,30.05,NNE,27,0.0,3.2,91,0.00,,---,0.00,VWS V14.01,2013-02-14 11:13:00,
2013-02-14 06:15:00,68.0,65.2,30.05,NE,52,0.0,3.4,91,0.00,,---,0.00,VWS V14.01,2013-02-14 11:15:00,
2013-02-14 06:17:00,68.0,65.1,30.05,NE,34,2.7,5.2,90,0.00,,---,0.00,VWS V14.01,2013-02-14 11:17:00,
2013-02-14 06:18:00,68.0,65.1,30.05,NE,34,0.0,5.2,90,0.00,,---,0.00,VWS V14.01,2013-02-14 11:18:00,
2013-02-14 06:20:00,68.2,65.3,30.05,ENE,62,0.4,1.6,90,0.00,,---,0.00,VWS V14.01,2013-02-14 11:20:00,
2013-02-14 06:22:00,68.1,65.2,30.05,NE,51,2.5,3.2,90,0.00,,---,0.00,VWS V14.01,2013-02-14 11:22:00,
2013-02-14 06:23:00,68.2,65.3,30.05,NNE,17,0.0,3.2,90,0.00,,---,0.00,VWS V14.01,2013-02-14 11:23:00,
2013-02-14 06:25:00,68.3,65.4,30.05,NNE,17,0.0,0.0,90,0.00,,---,0.00,VWS V14.01,2013-02-14 11:25:00,
2013-02-14 06:28:00,68.3,65.3,30.05,NNE,32,2.7,2.7,90,0.00,,---,0.00,VWS V14.01,2013-02-14 11:28:00,
2013-02-14 06:30:00,68.3,65.3,30.05,NNE,15,0.9,2.2,90,0.00,,---,0.00,VWS V14.01,2013-02-14 11:30:00,
2013-02-14 06:33:00,68.4,65.4,30.05,NNE,17,0.0,0.0,90,0.00,,---,0.00,VWS V14.01,2013-02-14 11:33:00,
2013-02-14 06:35:00,68.4,65.3,30.05,NNW,333,0.0,0.0,90,0.00,,---,0.00,VWS V14.01,2013-02-14 11:35:00,
2013-02-14 06:38:00,68.5,65.4,30.05,NNW,333,0.0,0.0,90,0.00,,---,0.00,VWS V14.01,2013-02-14 11:38:00,
2013-02-14 06:40:00,68.5,65.4,30.05,East,89,0.0,0.0,90,0.00,,---,0.00,VWS V14.01,2013-02-14 11:40:00,
2013-02-14 06:43:00,68.5,65.4,30.05,East,89,0.0,0.0,90,0.00,,---,0.00,VWS V14.01,2013-02-14 11:43:00,
2013-02-14 06:46:00,68.5,65.3,30.05,East,89,0.0,0.0,90,0.00,,---,0.00,VWS V14.01,2013-02-14 11:46:00,
2013-02-14 06:48:00,68.5,65.3,30.05,ENE,65,0.0,1.2,89,0.00,,---,0.00,VWS V14.01,2013-02-14 11:48:00,
2013-02-14 06:49:00,68.5,65.3,30.05,ENE,65,0.0,0.0,89,0.00,,---,0.00,VWS V14.01,2013-02-14 11:49:00,
2013-02-14 06:51:00,68.5,65.3,30.05,ENE,65,0.0,0.0,89,0.00,,---,0.00,VWS V14.01,2013-02-14 11:51:00,
2013-02-14 06:53:00,68.5,65.3,30.05,ENE,65,0.0,0.0,90,0.00,,---,0.00,VWS V14.01,2013-02-14 11:53:00,
2013-02-14 06:54:00,68.5,65.2,30.05,NNE,15,1.1,3.0,89,0.00,,---,0.00,VWS V14.01,2013-02-14 11:54:00,
2013-02-14 06:56:00,68.4,65.1,30.05,ENE,65,0.0,2.2,89,0.00,,---,0.00,VWS V14.01,2013-02-14 11:56:00,
2013-02-14 06:58:00,68.5,65.2,30.05,ENE,65,0.0,0.0,89,0.00,,---,0.00,VWS V14.01,2013-02-14 11:58:00,
2013-02-14 06:59:00,68.5,65.2,30.05,ENE,65,0.0,0.0,89,0.00,,---,0.00,VWS V14.01,2013-02-14 11:59:00,
2013-02-14 07:01:00,68.5,65.1,30.05,ENE,72,0.0,0.0,89,0.00,,---,0.00,VWS V14.01,2013-02-14 12:01:00,
2013-02-14 07:03:00,68.4,65.1,30.05,ENE,72,0.0,0.0,89,0.00,,---,0.00,VWS V14.01,2013-02-14 12:03:00,
2013-02-14 07:04:00,68.4,65.1,30.05,ENE,72,0.0,0.0,89,0.00,,---,0.00,VWS V14.01,2013-02-14 12:04:00,
2013-02-14 07:06:00,68.5,65.2,30.06,ENE,72,0.0,0.0,89,0.00,,---,0.00,VWS V14.01,2013-02-14 12:06:00,
2013-02-14 07:08:00,68.6,65.3,30.06,ENE,72,0.0,0.0,89,0.00,,---,0.00,VWS V14.01,2013-02-14 12:08:00,
2013-02-14 07:09:00,68.8,65.5,30.06,ENE,72,0.0,0.0,89,0.00,,---,0.00,VWS V14.01,2013-02-14 12:09:00,
2013-02-14 07:11:00,68.8,65.4,30.06,North,357,0.7,2.4,89,0.00,,---,0.00,VWS V14.01,2013-02-14 12:11:00,
2013-02-14 07:13:00,68.6,65.2,30.06,North,357,0.0,0.0,89,0.00,,---,0.00,VWS V14.01,2013-02-14 12:13:00,
2013-02-14 07:14:00,68.8,65.4,30.06,North,357,0.0,0.0,89,0.00,,---,0.00,VWS V14.01,2013-02-14 12:14:00,
2013-02-14 07:16:00,68.7,65.3,30.06,North,357,0.0,0.0,89,0.00,,---,0.00,VWS V14.01,2013-02-14 12:16:00,
2013-02-14 07:19:00,68.9,65.5,30.06,North,357,0.0,0.0,89,0.00,,---,0.00,VWS V14.01,2013-02-14 12:19:00,
2013-02-14 07:20:00,68.8,65.4,30.06,North,357,0.0,0.0,89,0.00,,---,0.00,VWS V14.01,2013-02-14 12:20:00,
2013-02-14 07:21:00,69.0,65.6,30.06,North,357,0.0,0.0,89,0.00,,---,0.00,VWS V14.01,2013-02-14 12:21:00,
2013-02-14 07:24:00,68.8,65.3,30.06,North,357,0.0,0.0,89,0.00,,---,0.00,VWS V14.01,2013-02-14 12:24:00,
2013-02-14 07:25:00,68.9,65.4,30.06,North,357,0.0,0.0,89,0.00,,---,0.00,VWS V14.01,2013-02-14 12:25:00,
2013-02-14 07:26:00,68.9,65.4,30.07,North,357,0.0,0.0,89,0.00,,---,0.00,VWS V14.01,2013-02-14 12:26:00,
2013-02-14 07:29:00,69.1,65.6,30.07,North,357,0.0,0.0,89,0.00,,---,0.00,VWS V14.01,2013-02-14 12:29:00,
2013-02-14 07:30:00,69.1,65.6,30.07,North,357,0.0,0.0,89,0.00,,---,0.00,VWS V14.01,2013-02-14 12:30:00,
2013-02-14 07:31:00,69.1,65.6,30.07,North,357,0.0,0.0,89,0.00,,---,0.00,VWS V14.01,2013-02-14 12:31:00,
2013-02-14 07:34:00,69.2,65.7,30.06,North,357,0.0,0.0,88,0.00,,---,0.00,VWS V14.01,2013-02-14 12:34:00,
2013-02-14 07:35:00,69.2,65.6,30.06,North,357,0.0,0.0,88,0.00,,---,0.00,VWS V14.01,2013-02-14 12:35:00,
2013-02-14 07:36:00,69.2,65.6,30.06,North,357,0.0,0.0,88,0.00,,---,0.00,VWS V14.01,2013-02-14 12:36:00,
2013-02-14 07:39:00,69.3,65.7,30.06,North,357,0.0,0.0,88,0.00,,---,0.00,VWS V14.01,2013-02-14 12:39:00,
2013-02-14 07:40:00,69.3,65.7,30.06,North,357,0.0,0.0,88,0.00,,---,0.00,VWS V14.01,2013-02-14 12:40:00,
2013-02-14 07:42:00,69.4,65.7,30.06,North,357,0.0,0.0,88,0.00,,---,0.00,VWS V14.01,2013-02-14 12:42:00,
2013-02-14 07:44:00,69.4,65.7,30.07,North,357,0.0,0.0,88,0.00,,---,0.00,VWS V14.01,2013-02-14 12:44:00,
2013-02-14 07:45:00,69.5,65.8,30.07,North,357,0.0,0.0,88,0.00,,---,0.00,VWS V14.01,2013-02-14 12:45:00,
2013-02-14 07:47:00,69.4,65.7,30.07,NNW,347,0.6,0.6,88,0.00,,---,0.00,VWS V14.01,2013-02-14 12:47:00,
2013-02-14 07:49:00,69.5,65.8,30.07,NW,323,0.0,0.0,88,0.00,,---,0.00,VWS V14.01,2013-02-14 12:49:00,
2013-02-14 07:50:00,69.4,65.6,30.07,NNE,15,1.2,2.1,88,0.00,,---,0.00,VWS V14.01,2013-02-14 12:50:00,
2013-02-14 07:52:00,69.6,65.8,30.07,ENE,63,0.0,2.0,88,0.00,,---,0.00,VWS V14.01,2013-02-14 12:52:00,
2013-02-14 07:54:00,69.6,65.8,30.07,ENE,63,0.0,0.0,88,0.00,,---,0.00,VWS V14.01,2013-02-14 12:54:00,
2013-02-14 07:55:00,69.7,65.9,30.07,ENE,63,0.0,0.0,88,0.00,,---,0.00,VWS V14.01,2013-02-14 12:55:00,
2013-02-14 07:56:00,69.5,65.7,30.07,ENE,63,0.0,0.0,88,0.00,,---,0.00,VWS V14.01,2013-02-14 12:56:00,
2013-02-14 07:57:00,69.6,65.8,30.07,ENE,63,0.0,0.0,88,0.00,,---,0.00,VWS V14.01,2013-02-14 12:57:00,
2013-02-14 07:59:00,69.8,66.0,30.07,ENE,63,0.0,0.0,88,0.00,,---,0.00,VWS V14.01,2013-02-14 12:59:00,
2013-02-14 08:01:00,69.8,65.9,30.07,NE,48,1.1,1.5,88,0.00,,---,0.00,VWS V14.01,2013-02-14 13:01:00,
2013-02-14 08:02:00,69.9,66.0,30.07,NNW,339,0.0,0.0,88,0.00,,---,0.00,VWS V14.01,2013-02-14 13:02:00,
2013-02-14 08:04:00,69.9,65.9,30.07,NNE,21,0.0,2.0,87,0.00,,---,0.00,VWS V14.01,2013-02-14 13:04:00,
2013-02-14 08:06:00,69.8,65.9,30.07,NW,326,1.6,2.9,87,0.00,,---,0.00,VWS V14.01,2013-02-14 13:06:00,
2013-02-14 08:07:00,70.0,66.1,30.07,NNW,329,1.2,1.4,87,0.00,,---,0.00,VWS V14.01,2013-02-14 13:07:00,
2013-02-14 08:10:00,70.2,66.2,30.07,WNW,297,0.0,3.3,87,0.00,,---,0.00,VWS V14.01,2013-02-14 13:10:00,
2013-02-14 08:11:00,70.2,66.1,30.07,WNW,297,0.0,0.0,87,0.00,,---,0.00,VWS V14.01,2013-02-14 13:11:00,
2013-02-14 08:12:00,70.2,66.1,30.07,WNW,297,0.0,0.0,87,0.00,,---,0.00,VWS V14.01,2013-02-14 13:12:00,
2013-02-14 08:15:00,70.4,66.2,30.07,NE,44,0.0,1.4,87,0.00,,---,0.00,VWS V14.01,2013-02-14 13:15:00,
2013-02-14 08:16:00,70.4,66.3,30.07,NW,318,0.7,0.9,87,0.00,,---,0.00,VWS V14.01,2013-02-14 13:16:00,
2013-02-14 08:17:00,70.4,66.2,30.07,North,353,1.2,3.0,86,0.00,,---,0.00,VWS V14.01,2013-02-14 13:17:00,
2013-02-14 08:20:00,70.5,66.2,30.07,North,6,2.2,2.2,86,0.00,,---,0.00,VWS V14.01,2013-02-14 13:20:00,
2013-02-14 08:21:00,70.4,65.9,30.07,SE,145,1.6,2.3,86,0.00,,---,0.00,VWS V14.01,2013-02-14 13:21:00,
2013-02-14 08:22:00,70.5,66.2,30.07,WNW,294,2.0,2.6,86,0.00,,---,0.00,VWS V14.01,2013-02-14 13:22:00,
2013-02-14 08:25:00,70.2,65.8,30.07,NE,34,0.2,2.1,86,0.00,,---,0.00,VWS V14.01,2013-02-14 13:25:00,
2013-02-14 08:26:00,70.3,65.9,30.08,NNE,14,2.2,3.2,86,0.00,,---,0.00,VWS V14.01,2013-02-14 13:26:00,
2013-02-14 08:27:00,70.3,65.8,30.07,North,359,0.5,2.3,86,0.00,,---,0.00,VWS V14.01,2013-02-14 13:27:00,
2013-02-14 08:30:00,70.5,66.0,30.07,North,6,0.0,1.9,86,0.00,,---,0.00,VWS V14.01,2013-02-14 13:30:00,
2013-02-14 08:31:00,70.4,65.9,30.07,ESE,107,0.8,0.8,86,0.00,,---,0.00,VWS V14.01,2013-02-14 13:31:00,
2013-02-14 08:32:00,70.4,65.8,30.08,NNE,15,1.6,1.7,86,0.00,,---,0.00,VWS V14.01,2013-02-14 13:32:00,
2013-02-14 08:35:00,70.4,65.8,30.07,NE,42,4.5,5.1,85,0.00,,---,0.00,VWS V14.01,2013-02-14 13:35:00,
2013-02-14 08:36:00,70.3,65.8,30.08,ENE,77,0.0,0.0,86,0.00,,---,0.00,VWS V14.01,2013-02-14 13:36:00,
2013-02-14 08:37:00,70.5,66.0,30.08,NNE,13,0.9,1.6,86,0.00,,---,0.00,VWS V14.01,2013-02-14 13:37:00,
2013-02-14 08:38:00,70.4,65.9,30.08,North,352,5.7,6.0,86,0.00,,---,0.00,VWS V14.01,2013-02-14 13:38:00,
2013-02-14 08:40:00,70.4,65.8,30.08,ENE,66,0.0,0.0,86,0.00,,---,0.00,VWS V14.01,2013-02-14 13:40:00,
2013-02-14 08:41:00,70.4,65.8,30.08,ENE,66,0.0,0.0,85,0.00,,---,0.00,VWS V14.01,2013-02-14 13:41:00,
2013-02-14 08:42:00,70.5,65.9,30.08,ENE,66,0.0,0.0,85,0.00,,---,0.00,VWS V14.01,2013-02-14 13:42:00,
2013-02-14 08:43:00,70.4,65.8,30.08,ENE,66,0.0,0.0,86,0.00,,---,0.00,VWS V14.01,2013-02-14 13:43:00,
2013-02-14 08:45:00,70.3,65.7,30.08,ESE,104,0.0,5.1,85,0.00,,---,0.00,VWS V14.01,2013-02-14 13:45:00,
2013-02-14 08:47:00,70.2,65.6,30.08,NE,42,0.0,3.8,85,0.00,,---,0.00,VWS V14.01,2013-02-14 13:47:00,
2013-02-14 08:48:00,70.4,65.8,30.08,NE,53,2.3,3.2,85,0.00,,---,0.00,VWS V14.01,2013-02-14 13:48:00,
2013-02-14 08:50:00,70.3,65.7,30.08,NE,42,0.0,0.0,85,0.00,,---,0.00,VWS V14.01,2013-02-14 13:50:00,
2013-02-14 08:52:00,70.3,65.7,30.08,North,3,0.0,1.9,85,0.00,,---,0.00,VWS V14.01,2013-02-14 13:52:00,
2013-02-14 08:53:00,70.2,65.6,30.08,North,11,1.0,4.2,85,0.00,,---,0.00,VWS V14.01,2013-02-14 13:53:00,
2013-02-14 08:55:00,70.3,65.8,30.08,North,11,0.0,0.0,86,0.00,,---,0.00,VWS V14.01,2013-02-14 13:55:00,
2013-02-14 08:57:00,70.3,65.8,30.08,North,8,0.0,0.0,86,0.00,,---,0.00,VWS V14.01,2013-02-14 13:57:00,
2013-02-14 08:58:00,70.2,65.7,30.08,North,8,0.0,0.0,86,0.00,,---,0.00,VWS V14.01,2013-02-14 13:58:00,
2013-02-14 09:00:00,70.4,65.8,30.08,North,8,0.0,0.0,86,0.00,,---,0.00,VWS V14.01,2013-02-14 14:00:00,
2013-02-14 09:02:00,70.3,65.8,30.08,NNW,347,0.9,0.9,86,0.00,,---,0.00,VWS V14.01,2013-02-14 14:02:00,
2013-02-14 09:03:00,70.3,65.8,30.08,NNW,333,1.5,1.5,86,0.00,,---,0.00,VWS V14.01,2013-02-14 14:03:00,
2013-02-14 09:06:00,70.2,65.7,30.08,NW,304,1.2,2.7,86,0.00,,---,0.00,VWS V14.01,2013-02-14 14:06:00,
2013-02-14 09:07:00,70.3,65.8,30.08,NW,309,0.0,2.7,86,0.00,,---,0.00,VWS V14.01,2013-02-14 14:07:00,
2013-02-14 09:08:00,70.1,65.6,30.09,NW,312,1.2,2.8,86,0.00,,---,0.00,VWS V14.01,2013-02-14 14:08:00,
2013-02-14 09:11:00,70.2,65.7,30.09,NW,308,0.0,2.6,86,0.00,,---,0.00,VWS V14.01,2013-02-14 14:11:00,
2013-02-14 09:12:00,70.3,65.8,30.09,NW,308,0.0,0.0,86,0.00,,---,0.00,VWS V14.01,2013-02-14 14:12:00,
2013-02-14 09:13:00,70.3,65.8,30.09,NW,319,4.8,6.0,86,0.00,,---,0.00,VWS V14.01,2013-02-14 14:13:00,
2013-02-14 09:16:00,70.1,65.7,30.09,NNE,28,0.0,0.0,86,0.00,,---,0.00,VWS V14.01,2013-02-14 14:16:00,
2013-02-14 09:18:00,70.1,65.7,30.09,NNE,28,0.0,0.0,86,0.00,,---,0.00,VWS V14.01,2013-02-14 14:18:00,
2013-02-14 09:21:00,70.1,65.7,30.09,NE,45,1.2,2.7,86,0.00,,---,0.00,VWS V14.01,2013-02-14 14:21:00,
2013-02-14 09:23:00,70.2,65.8,30.09,NE,45,0.0,0.0,86,0.00,,---,0.00,VWS V14.01,2013-02-14 14:23:00,
2013-02-14 09:26:00,70.2,65.8,30.09,NW,312,0.0,0.0,86,0.00,,---,0.00,VWS V14.01,2013-02-14 14:26:00,
2013-02-14 09:28:00,70.3,65.9,30.09,NW,312,0.0,0.0,86,0.00,,---,0.00,VWS V14.01,2013-02-14 14:28:00,
2013-02-14 09:32:00,70.1,65.8,30.09,NW,312,0.0,0.0,86,0.00,,---,0.00,VWS V14.01,2013-02-14 14:32:00,
2013-02-14 09:33:00,69.9,65.5,30.09,NW,315,5.2,6.2,86,0.00,,---,0.00,VWS V14.01,2013-02-14 14:33:00,
2013-02-14 09:37:00,69.5,65.3,30.09,WNW,302,5.4,7.7,86,0.00,,---,0.00,VWS V14.01,2013-02-14 14:37:00,
2013-02-14 09:38:00,69.5,65.3,30.09,North,357,7.2,7.2,86,0.00,,---,0.00,VWS V14.01,2013-02-14 14:38:00,
2013-02-14 09:42:00,69.4,65.3,30.09,East,87,0.5,4.8,87,0.10,,---,0.10,VWS V14.01,2013-02-14 14:42:00,
2013-02-14 09:43:00,69.2,65.2,30.09,NW,325,4.2,5.3,87,0.10,,---,0.10,VWS V14.01,2013-02-14 14:43:00,
2013-02-14 09:44:00,69.3,65.4,30.09,WNW,300,5.8,5.8,87,0.10,,---,0.10,VWS V14.01,2013-02-14 14:44:00,
2013-02-14 09:47:00,68.9,65.4,30.10,West,263,6.7,7.5,89,0.10,,---,0.10,VWS V14.01,2013-02-14 14:47:00,
2013-02-14 09:48:00,68.8,65.3,30.10,WSW,238,1.5,6.0,89,0.10,,---,0.10,VWS V14.01,2013-02-14 14:48:00,
2013-02-14 09:49:00,68.7,65.2,30.10,WSW,238,0.0,1.5,88,0.10,,---,0.10,VWS V14.01,2013-02-14 14:49:00,
2013-02-14 09:52:00,68.8,65.6,30.09,ENE,73,4.3,6.6,89,0.10,,---,0.10,VWS V14.01,2013-02-14 14:52:00,
2013-02-14 09:53:00,68.8,65.6,30.09,NNW,345,2.1,3.2,89,0.20,,---,0.20,VWS V14.01,2013-02-14 14:53:00,
2013-02-14 09:54:00,68.8,65.6,30.09,North,6,3.1,5.2,89,0.20,,---,0.20,VWS V14.01,2013-02-14 14:54:00,
2013-02-14 09:57:00,69.0,65.7,30.09,NNE,15,0.9,1.5,89,0.20,,---,0.20,VWS V14.01,2013-02-14 14:57:00,
2013-02-14 09:58:00,69.2,65.9,30.09,NNE,15,0.0,0.0,89,0.20,,---,0.20,VWS V14.01,2013-02-14 14:58:00,
2013-02-14 09:59:00,69.0,65.7,30.09,NNE,15,0.0,0.0,89,0.20,,---,0.20,VWS V14.01,2013-02-14 14:59:00,
2013-02-14 10:02:00,69.2,65.9,30.09,NNE,15,0.0,0.6,89,0.20,,---,0.20,VWS V14.01,2013-02-14 15:02:00,
2013-02-14 10:03:00,69.3,66.1,30.10,NNE,15,0.0,0.0,89,0.30,,---,0.30,VWS V14.01,2013-02-14 15:03:00,
2013-02-14 10:04:00,69.4,66.2,30.10,NNE,15,0.0,0.0,90,0.30,,---,0.30,VWS V14.01,2013-02-14 15:04:00,
2013-02-14 10:07:00,69.4,66.3,30.09,NE,53,0.0,1.6,90,0.30,,---,0.30,VWS V14.01,2013-02-14 15:07:00,
2013-02-14 10:09:00,69.5,66.4,30.09,NE,53,0.0,0.0,90,0.30,,---,0.30,VWS V14.01,2013-02-14 15:09:00,
2013-02-14 10:12:00,69.4,66.4,30.10,NE,53,0.0,0.0,90,0.40,,---,0.40,VWS V14.01,2013-02-14 15:12:00,
2013-02-14 10:14:00,69.5,66.4,30.09,NE,53,0.0,0.0,90,0.40,,---,0.40,VWS V14.01,2013-02-14 15:14:00,
2013-02-14 10:15:00,69.6,66.5,30.09,NE,53,0.0,0.0,90,0.40,,---,0.40,VWS V14.01,2013-02-14 15:15:00,
2013-02-14 10:17:00,69.7,66.6,30.09,NE,53,0.0,0.0,90,0.40,,---,0.40,VWS V14.01,2013-02-14 15:17:00,
2013-02-14 10:19:00,69.6,66.5,30.10,NE,53,0.0,0.0,90,0.40,,---,0.40,VWS V14.01,2013-02-14 15:19:00,
2013-02-14 10:20:00,69.6,66.5,30.10,NE,53,0.0,0.0,90,0.40,,---,0.40,VWS V14.01,2013-02-14 15:20:00,
2013-02-14 10:22:00,69.7,66.6,30.10,NE,53,0.0,0.0,90,0.40,,---,0.40,VWS V14.01,2013-02-14 15:22:00,
2013-02-14 10:24:00,69.7,66.6,30.10,NE,53,0.0,0.0,90,0.40,,---,0.40,VWS V14.01,2013-02-14 15:24:00,
2013-02-14 10:25:00,69.6,66.5,30.10,NE,53,0.0,0.0,90,0.40,,---,0.40,VWS V14.01,2013-02-14 15:25:00,
2013-02-14 10:27:00,69.6,66.5,30.10,NE,53,0.0,0.0,90,0.40,,---,0.40,VWS V14.01,2013-02-14 15:27:00,
2013-02-14 10:29:00,69.5,66.5,30.10,NE,53,0.0,0.0,90,0.40,,---,0.40,VWS V14.01,2013-02-14 15:29:00,
2013-02-14 10:30:00,69.5,66.5,30.09,NE,53,0.0,0.0,90,0.50,,---,0.50,VWS V14.01,2013-02-14 15:30:00,
2013-02-14 10:33:00,69.6,66.7,30.09,NE,53,0.0,0.0,90,0.50,,---,0.50,VWS V14.01,2013-02-14 15:33:00,
2013-02-14 10:34:00,69.7,66.8,30.09,NE,53,0.0,0.0,90,0.50,,---,0.50,VWS V14.01,2013-02-14 15:34:00,
2013-02-14 10:35:00,69.4,66.6,30.09,NE,53,0.0,0.0,91,0.50,,---,0.50,VWS V14.01,2013-02-14 15:35:00,
2013-02-14 10:38:00,69.6,66.7,30.09,NE,53,0.0,0.0,90,0.50,,---,0.50,VWS V14.01,2013-02-14 15:38:00,
2013-02-14 10:39:00,69.4,66.5,30.09,NE,53,0.0,0.0,91,0.50,,---,0.50,VWS V14.01,2013-02-14 15:39:00,
2013-02-14 10:40:00,69.6,66.7,30.10,NE,53,0.0,0.0,90,0.40,,---,0.50,VWS V14.01,2013-02-14 15:40:00,
2013-02-14 10:43:00,69.6,66.7,30.10,NE,53,0.0,0.0,90,0.40,,---,0.50,VWS V14.01,2013-02-14 15:43:00,
2013-02-14 10:44:00,69.5,66.6,30.10,NE,53,0.0,0.0,91,0.40,,---,0.50,VWS V14.01,2013-02-14 15:44:00,
2013-02-14 10:45:00,69.6,66.7,30.10,NE,53,0.0,0.0,91,0.40,,---,0.50,VWS V14.01,2013-02-14 15:45:00,
2013-02-14 10:48:00,69.6,66.8,30.09,NE,53,0.0,0.0,91,0.40,,---,0.50,VWS V14.01,2013-02-14 15:48:00,
2013-02-14 10:49:00,69.6,66.8,30.09,NE,53,0.0,0.0,91,0.40,,---,0.50,VWS V14.01,2013-02-14 15:49:00,
2013-02-14 10:50:00,69.5,66.7,30.09,NE,53,0.0,0.0,91,0.40,,---,0.50,VWS V14.01,2013-02-14 15:50:00,
2013-02-14 10:53:00,69.6,66.8,30.09,NE,53,0.0,0.0,91,0.40,,---,0.50,VWS V14.01,2013-02-14 15:53:00,
2013-02-14 10:54:00,69.8,67.1,30.09,NE,53,0.0,0.0,91,0.30,,---,0.50,VWS V14.01,2013-02-14 15:54:00,
2013-02-14 10:55:00,69.7,67.0,30.09,NE,53,0.0,0.0,91,0.30,,---,0.50,VWS V14.01,2013-02-14 15:55:00,
2013-02-14 10:56:00,69.6,67.0,30.09,NE,53,0.0,0.0,91,0.40,,---,0.60,VWS V14.01,2013-02-14 15:56:00,
2013-02-14 10:58:00,69.6,67.0,30.08,NE,53,0.0,0.0,92,0.40,,---,0.60,VWS V14.01,2013-02-14 15:58:00,
2013-02-14 10:59:00,69.5,67.1,30.09,NE,53,0.0,0.0,92,0.40,,---,0.60,VWS V14.01,2013-02-14 15:59:00,
2013-02-14 11:00:00,69.6,67.1,30.09,NE,53,0.0,0.0,92,0.40,,---,0.60,VWS V14.01,2013-02-14 16:00:00,
2013-02-14 11:01:00,69.4,66.9,30.08,NE,53,0.0,0.0,92,0.40,,---,0.60,VWS V14.01,2013-02-14 16:01:00,
2013-02-14 11:03:00,69.7,67.2,30.09,NE,53,0.0,0.0,92,0.40,,---,0.60,VWS V14.01,2013-02-14 16:03:00,
2013-02-14 11:04:00,69.7,67.2,30.09,NE,53,0.0,0.0,92,0.40,,---,0.60,VWS V14.01,2013-02-14 16:04:00,
2013-02-14 11:05:00,70.0,67.4,30.09,NE,53,0.0,0.0,92,0.30,,---,0.60,VWS V14.01,2013-02-14 16:05:00,
2013-02-14 11:06:00,69.9,67.3,30.08,NE,53,0.0,0.0,92,0.30,,---,0.60,VWS V14.01,2013-02-14 16:06:00,
2013-02-14 11:08:00,69.9,67.3,30.08,NE,53,0.0,0.0,92,0.30,,---,0.60,VWS V14.01,2013-02-14 16:08:00,
2013-02-14 11:09:00,70.0,67.5,30.08,NE,53,0.0,0.0,92,0.30,,---,0.60,VWS V14.01,2013-02-14 16:09:00,
2013-02-14 11:10:00,69.9,67.4,30.08,NE,53,0.0,0.0,92,0.30,,---,0.60,VWS V14.01,2013-02-14 16:10:00,
2013-02-14 11:11:00,70.1,67.6,30.08,NE,53,0.0,0.0,92,0.30,,---,0.60,VWS V14.01,2013-02-14 16:11:00,
2013-02-14 11:13:00,69.9,67.4,30.08,NE,53,0.0,0.0,92,0.20,,---,0.60,VWS V14.01,2013-02-14 16:13:00,
2013-02-14 11:14:00,70.0,67.5,30.08,NE,53,0.0,0.0,92,0.20,,---,0.60,VWS V14.01,2013-02-14 16:14:00,
2013-02-14 11:15:00,70.1,67.7,30.08,NE,53,0.0,0.0,92,0.20,,---,0.60,VWS V14.01,2013-02-14 16:15:00,
2013-02-14 11:16:00,70.1,67.7,30.08,NE,53,0.0,0.0,92,0.20,,---,0.60,VWS V14.01,2013-02-14 16:16:00,
2013-02-14 11:19:00,70.0,67.5,30.08,NE,53,0.0,0.0,92,0.20,,---,0.60,VWS V14.01,2013-02-14 16:19:00,
2013-02-14 11:21:00,69.9,67.4,30.08,NE,53,0.0,0.0,92,0.20,,---,0.60,VWS V14.01,2013-02-14 16:21:00,
2013-02-14 11:24:00,70.3,67.9,30.08,ESE,110,2.4,2.4,92,0.20,,---,0.60,VWS V14.01,2013-02-14 16:24:00,
2013-02-14 11:26:00,70.1,67.7,30.08,NE,46,0.0,0.0,92,0.20,,---,0.60,VWS V14.01,2013-02-14 16:26:00,
2013-02-14 11:27:00,70.0,67.5,30.08,NE,46,0.0,0.0,92,0.20,,---,0.60,VWS V14.01,2013-02-14 16:27:00,
2013-02-14 11:29:00,69.9,67.4,30.08,NE,46,0.0,0.0,92,0.20,,---,0.60,VWS V14.01,2013-02-14 16:29:00,
2013-02-14 11:31:00,70.1,67.7,30.08,NE,46,0.0,0.0,92,0.20,,---,0.70,VWS V14.01,2013-02-14 16:31:00,
2013-02-14 11:32:00,70.0,67.6,30.08,NE,46,0.0,0.0,92,0.20,,---,0.70,VWS V14.01,2013-02-14 16:32:00,
2013-02-14 11:34:00,70.0,67.6,30.08,NE,46,0.0,0.0,92,0.20,,---,0.70,VWS V14.01,2013-02-14 16:34:00,
2013-02-14 11:36:00,70.3,67.9,30.08,NE,46,0.0,0.0,92,0.20,,---,0.70,VWS V14.01,2013-02-14 16:36:00,
2013-02-14 11:37:00,70.2,67.8,30.08,NE,44,0.9,2.0,92,0.20,,---,0.70,VWS V14.01,2013-02-14 16:37:00,
2013-02-14 11:39:00,70.3,67.9,30.08,NNE,31,0.0,0.0,92,0.20,,---,0.70,VWS V14.01,2013-02-14 16:39:00,
2013-02-14 11:40:00,70.4,68.1,30.08,NNE,31,0.4,0.4,92,0.20,,---,0.70,VWS V14.01,2013-02-14 16:40:00,
2013-02-14 11:41:00,70.5,68.1,30.08,NNE,31,0.0,0.0,92,0.20,,---,0.70,VWS V14.01,2013-02-14 16:41:00,
2013-02-14 11:42:00,70.6,68.2,30.08,NE,41,0.0,0.0,92,0.20,,---,0.70,VWS V14.01,2013-02-14 16:42:00,
2013-02-14 11:44:00,70.7,68.3,30.08,North,0,2.2,2.4,92,0.20,,---,0.70,VWS V14.01,2013-02-14 16:44:00,
2013-02-14 11:45:00,70.7,68.2,30.07,NNW,342,0.0,0.0,92,0.20,,---,0.70,VWS V14.01,2013-02-14 16:45:00,
2013-02-14 11:46:00,70.6,68.1,30.07,NNW,342,0.0,0.0,92,0.20,,---,0.70,VWS V14.01,2013-02-14 16:46:00,
2013-02-14 11:47:00,70.5,68.0,30.07,NNW,342,0.0,0.0,92,0.20,,---,0.70,VWS V14.01,2013-02-14 16:47:00,
2013-02-14 11:49:00,70.6,68.1,30.07,NNW,342,0.0,0.0,92,0.20,,---,0.70,VWS V14.01,2013-02-14 16:49:00,
2013-02-14 11:50:00,70.6,68.2,30.07,NNW,342,0.0,0.0,92,0.20,,---,0.70,VWS V14.01,2013-02-14 16:50:00,
2013-02-14 11:51:00,70.5,68.1,30.07,NNW,342,0.0,0.0,92,0.20,,---,0.70,VWS V14.01,2013-02-14 16:51:00,
2013-02-14 11:52:00,70.5,68.1,30.07,NNW,342,0.0,0.0,92,0.20,,---,0.70,VWS V14.01,2013-02-14 16:52:00,
2013-02-14 11:54:00,70.4,67.9,30.07,ENE,72,0.0,1.6,92,0.20,,---,0.70,VWS V14.01,2013-02-14 16:54:00,
2013-02-14 11:55:00,70.3,67.8,30.07,East,100,0.0,0.0,92,0.20,,---,0.70,VWS V14.01,2013-02-14 16:55:00,
2013-02-14 11:56:00,70.2,67.8,30.07,East,100,0.0,0.0,92,0.10,,---,0.70,VWS V14.01,2013-02-14 16:56:00,
2013-02-14 11:57:00,70.5,68.1,30.08,East,100,0.0,0.0,92,0.10,,---,0.70,VWS V14.01,2013-02-14 16:57:00,
2013-02-14 11:59:00,70.2,67.8,30.08,NNW,339,1.5,4.8,92,0.10,,---,0.70,VWS V14.01,2013-02-14 16:59:00,
2013-02-14 12:00:00,70.5,68.1,30.08,NNW,340,1.9,1.9,92,0.20,,---,0.80,VWS V14.01,2013-02-14 17:00:00,
2013-02-14 12:02:00,70.5,68.1,30.08,NNE,32,1.4,1.7,92,0.20,,---,0.80,VWS V14.01,2013-02-14 17:02:00,
2013-02-14 12:03:00,70.4,68.0,30.08,NNE,32,0.0,0.0,92,0.20,,---,0.80,VWS V14.01,2013-02-14 17:03:00,
2013-02-14 12:04:00,70.4,68.0,30.08,NNE,21,1.3,5.7,92,0.20,,---,0.80,VWS V14.01,2013-02-14 17:04:00,
2013-02-14 12:05:00,70.4,67.9,30.07,NNW,330,0.0,0.0,92,0.20,,---,0.80,VWS V14.01,2013-02-14 17:05:00,
2013-02-14 12:07:00,70.5,68.0,30.07,NNW,335,0.0,0.6,92,0.20,,---,0.80,VWS V14.01,2013-02-14 17:07:00,
2013-02-14 12:08:00,70.4,68.0,30.07,NE,42,0.6,1.7,92,0.20,,---,0.80,VWS V14.01,2013-02-14 17:08:00,
2013-02-14 12:10:00,70.1,67.7,30.07,ESE,110,1.2,3.2,92,0.20,,---,0.80,VWS V14.01,2013-02-14 17:10:00,
2013-02-14 12:12:00,70.2,68.0,30.06,ENE,65,0.3,2.2,93,0.20,,---,0.80,VWS V14.01,2013-02-14 17:12:00,
2013-02-14 12:13:00,70.3,68.1,30.06,East,91,0.0,2.9,93,0.20,,---,0.80,VWS V14.01,2013-02-14 17:13:00,
2013-02-14 12:15:00,70.4,68.2,30.06,East,91,0.0,0.0,93,0.20,,---,0.80,VWS V14.01,2013-02-14 17:15:00,
2013-02-14 12:16:00,70.4,68.2,30.06,East,91,0.0,0.0,93,0.20,,---,0.80,VWS V14.01,2013-02-14 17:16:00,
2013-02-14 12:17:00,70.5,68.3,30.06,East,91,0.0,0.0,93,0.20,,---,0.80,VWS V14.01,2013-02-14 17:17:00,
2013-02-14 12:18:00,70.7,68.4,30.06,East,91,0.0,0.0,92,0.20,,---,0.80,VWS V14.01,2013-02-14 17:18:00,
2013-02-14 12:20:00,70.9,68.6,30.06,East,91,0.0,0.0,92,0.20,,---,0.80,VWS V14.01,2013-02-14 17:20:00,
2013-02-14 12:21:00,70.7,68.4,30.06,East,91,0.0,0.0,92,0.20,,---,0.80,VWS V14.01,2013-02-14 17:21:00,
2013-02-14 12:22:00,70.8,68.6,30.06,East,91,0.0,0.0,93,0.20,,---,0.80,VWS V14.01,2013-02-14 17:22:00,
2013-02-14 12:23:00,70.7,68.4,30.06,East,91,0.0,0.0,92,0.20,,---,0.80,VWS V14.01,2013-02-14 17:23:00,
2013-02-14 12:25:00,71.0,68.8,30.06,East,91,0.0,0.0,93,0.20,,---,0.80,VWS V14.01,2013-02-14 17:25:00,
2013-02-14 12:26:00,71.0,68.8,30.05,East,91,0.0,0.0,93,0.20,,---,0.80,VWS V14.01,2013-02-14 17:26:00,
2013-02-14 12:27:00,71.1,68.8,30.05,East,101,2.4,3.3,92,0.20,,---,0.80,VWS V14.01,2013-02-14 17:27:00,
2013-02-14 12:28:00,71.1,68.8,30.05,SE,139,0.0,0.7,92,0.20,,---,0.80,VWS V14.01,2013-02-14 17:28:00,
2013-02-14 12:30:00,71.2,68.9,30.05,ESE,115,2.2,2.5,92,0.20,,---,0.80,VWS V14.01,2013-02-14 17:30:00,
2013-02-14 12:31:00,71.2,68.9,30.05,NNE,27,0.0,0.0,92,0.10,,---,0.80,VWS V14.01,2013-02-14 17:31:00,
2013-02-14 12:32:00,71.4,69.0,30.05,SE,127,3.4,3.9,92,0.10,,---,0.80,VWS V14.01,2013-02-14 17:32:00,
2013-02-14 12:33:00,71.4,69.0,30.05,South,188,2.7,3.4,92,0.10,,---,0.80,VWS V14.01,2013-02-14 17:33:00,
2013-02-14 12:35:00,71.4,68.9,30.05,East,98,1.4,3.0,92,0.10,,---,0.80,VWS V14.01,2013-02-14 17:35:00,
2013-02-14 12:36:00,71.4,69.0,30.05,East,98,0.0,1.4,92,0.10,,---,0.80,VWS V14.01,2013-02-14 17:36:00,
2013-02-14 12:37:00,71.6,69.2,30.05,East,98,0.0,0.0,92,0.10,,---,0.80,VWS V14.01,2013-02-14 17:37:00,
2013-02-14 12:39:00,71.7,69.3,30.05,East,98,0.0,0.0,92,0.10,,---,0.80,VWS V14.01,2013-02-14 17:39:00,
2013-02-14 12:40:00,71.7,69.2,30.05,East,98,0.0,0.0,92,0.10,,---,0.80,VWS V14.01,2013-02-14 17:40:00,
2013-02-14 12:41:00,71.7,69.2,30.05,East,98,0.0,0.0,92,0.10,,---,0.80,VWS V14.01,2013-02-14 17:41:00,
2013-02-14 12:42:00,71.9,69.3,30.05,East,98,0.0,0.0,92,0.10,,---,0.80,VWS V14.01,2013-02-14 17:42:00,
2013-02-14 12:44:00,71.7,69.0,30.04,East,90,1.1,3.0,91,0.10,,---,0.80,VWS V14.01,2013-02-14 17:44:00,
2013-02-14 12:45:00,71.7,68.9,30.05,East,90,0.0,0.0,91,0.20,,---,0.90,VWS V14.01,2013-02-14 17:45:00,
2013-02-14 12:46:00,71.7,69.0,30.05,East,90,0.0,0.0,91,0.20,,---,0.90,VWS V14.01,2013-02-14 17:46:00,
2013-02-14 12:47:00,71.8,69.1,30.05,SE,134,3.0,3.2,91,0.20,,---,0.90,VWS V14.01,2013-02-14 17:47:00,
2013-02-14 12:49:00,72.0,69.3,30.04,SE,138,2.9,4.4,91,0.20,,---,0.90,VWS V14.01,2013-02-14 17:49:00,
2013-02-14 12:50:00,72.2,69.5,30.04,SE,143,0.0,0.0,91,0.20,,---,0.90,VWS V14.01,2013-02-14 17:50:00,
2013-02-14 12:51:00,72.0,69.2,30.04,SSE,166,1.2,4.5,91,0.20,,---,0.90,VWS V14.01,2013-02-14 17:51:00,
2013-02-14 12:53:00,72.5,69.9,30.04,SE,131,0.0,0.0,91,0.20,,---,0.90,VWS V14.01,2013-02-14 17:53:00,
2013-02-14 12:54:00,72.6,69.8,30.04,ESE,120,0.0,3.9,91,0.20,,---,0.90,VWS V14.01,2013-02-14 17:54:00,
2013-02-14 12:56:00,72.7,69.5,30.04,ESE,120,0.0,0.0,90,0.20,,---,0.90,VWS V14.01,2013-02-14 17:56:00,
2013-02-14 12:58:00,72.7,69.3,30.04,South,176,4.8,6.2,89,0.20,,---,0.90,VWS V14.01,2013-02-14 17:58:00,
2013-02-14 12:59:00,72.7,69.3,30.04,South,176,3.5,5.5,89,0.20,,---,0.90,VWS V14.01,2013-02-14 17:59:00,
2013-02-14 13:01:00,73.0,69.7,30.04,South,176,0.0,0.0,89,0.10,,---,0.90,VWS V14.01,2013-02-14 18:01:00,
2013-02-14 13:03:00,73.2,69.9,30.04,SE,145,5.5,5.5,90,0.10,,---,0.90,VWS V14.01,2013-02-14 18:03:00,
2013-02-14 13:04:00,73.3,69.5,30.04,SSE,153,4.2,5.5,88,0.10,,---,0.90,VWS V14.01,2013-02-14 18:04:00,
2013-02-14 13:06:00,73.5,69.8,30.03,ESE,108,0.0,1.7,88,0.10,,---,0.90,VWS V14.01,2013-02-14 18:06:00,
2013-02-14 13:08:00,73.9,70.0,30.03,ESE,108,0.0,0.0,88,0.10,,---,0.90,VWS V14.01,2013-02-14 18:08:00,
2013-02-14 13:09:00,74.1,70.1,30.03,ESE,108,0.0,0.0,87,0.10,,---,0.90,VWS V14.01,2013-02-14 18:09:00,
2013-02-14 13:11:00,74.2,69.7,30.03,ESE,108,0.0,0.0,86,0.10,,---,0.90,VWS V14.01,2013-02-14 18:11:00,
2013-02-14 13:13:00,74.3,69.6,30.03,ESE,108,0.0,0.0,85,0.10,,---,0.90,VWS V14.01,2013-02-14 18:13:00,
2013-02-14 13:15:00,74.3,69.5,30.02,ESE,107,0.0,0.0,85,0.10,,---,0.90,VWS V14.01,2013-02-14 18:15:00,
2013-02-14 13:16:00,74.4,69.4,30.02,SSE,166,0.2,5.7,84,0.10,,---,0.90,VWS V14.01,2013-02-14 18:16:00,
2013-02-14 13:18:00,74.5,69.6,30.02,SE,127,0.0,0.0,85,0.10,,---,0.90,VWS V14.01,2013-02-14 18:18:00,
2013-02-14 13:20:00,74.4,69.2,30.02,SE,127,0.0,0.0,84,0.10,,---,0.90,VWS V14.01,2013-02-14 18:20:00,
2013-02-14 13:21:00,74.5,69.3,30.02,South,172,2.1,6.5,84,0.10,,---,0.90,VWS V14.01,2013-02-14 18:21:00,
2013-02-14 13:23:00,74.5,69.1,30.02,SSE,163,2.7,3.3,83,0.10,,---,0.90,VWS V14.01,2013-02-14 18:23:00,
2013-02-14 13:25:00,74.6,69.0,30.02,SSE,162,0.0,4.3,83,0.10,,---,0.90,VWS V14.01,2013-02-14 18:25:00,
2013-02-14 13:26:00,74.6,69.3,30.02,SSE,162,0.0,0.0,84,0.10,,---,0.90,VWS V14.01,2013-02-14 18:26:00,
2013-02-14 13:27:00,74.5,69.2,30.02,SSE,162,0.0,0.0,84,0.10,,---,0.90,VWS V14.01,2013-02-14 18:27:00,
2013-02-14 13:28:00,74.8,69.3,30.02,SSE,162,0.0,0.0,83,0.10,,---,0.90,VWS V14.01,2013-02-14 18:28:00,
2013-02-14 13:30:00,74.9,69.2,30.02,SSE,162,0.0,0.0,82,0.10,,---,0.90,VWS V14.01,2013-02-14 18:30:00,
2013-02-14 13:31:00,74.9,69.2,30.02,SE,135,2.9,5.2,82,0.10,,---,0.90,VWS V14.01,2013-02-14 18:31:00,
2013-02-14 13:32:00,75.0,69.3,30.02,ESE,105,2.7,5.2,82,0.10,,---,0.90,VWS V14.01,2013-02-14 18:32:00,
2013-02-14 13:34:00,75.0,68.5,30.02,ESE,105,0.0,0.0,80,0.20,,---,1.00,VWS V14.01,2013-02-14 18:34:00,
2013-02-14 13:35:00,75.3,68.9,30.02,ESE,105,0.0,0.0,81,0.20,,---,1.00,VWS V14.01,2013-02-14 18:35:00,
2013-02-14 13:36:00,75.3,68.9,30.01,ESE,105,0.0,0.0,81,0.20,,---,1.00,VWS V14.01,2013-02-14 18:36:00,
2013-02-14 13:37:00,75.4,69.2,30.01,ESE,105,0.0,0.0,81,0.20,,---,1.00,VWS V14.01,2013-02-14 18:37:00,
2013-02-14 13:39:00,75.4,68.8,30.01,East,82,0.4,6.2,80,0.20,,---,1.00,VWS V14.01,2013-02-14 18:39:00,
2013-02-14 13:40:00,75.6,69.0,30.01,SE,134,0.0,3.7,80,0.20,,---,1.00,VWS V14.01,2013-02-14 18:40:00,
2013-02-14 13:41:00,75.6,69.2,30.01,SE,134,0.0,0.0,80,0.20,,---,1.00,VWS V14.01,2013-02-14 18:41:00,
2013-02-14 13:42:00,75.4,69.1,30.01,SE,134,0.0,0.0,81,0.20,,---,1.00,VWS V14.01,2013-02-14 18:42:00,
2013-02-14 13:44:00,75.4,69.1,30.01,SE,134,0.0,0.0,81,0.20,,---,1.00,VWS V14.01,2013-02-14 18:44:00,
2013-02-14 13:45:00,75.4,68.9,30.01,SE,134,0.0,0.0,80,0.20,,---,1.00,VWS V14.01,2013-02-14 18:45:00,
2013-02-14 13:47:00,75.6,69.4,30.01,SE,134,0.0,0.0,81,0.10,,---,1.00,VWS V14.01,2013-02-14 18:47:00,
2013-02-14 13:50:00,76.0,69.2,30.00,SE,134,0.0,0.0,80,0.10,,---,1.00,VWS V14.01,2013-02-14 18:50:00,
2013-02-14 13:52:00,76.0,69.2,30.00,SE,134,0.0,0.0,80,0.10,,---,1.00,VWS V14.01,2013-02-14 18:52:00,
2013-02-14 13:55:00,76.1,68.6,30.00,SSE,162,0.0,4.8,78,0.10,,---,1.00,VWS V14.01,2013-02-14 18:55:00,
2013-02-14 13:57:00,75.9,68.8,30.00,SE,129,0.0,4.1,79,0.10,,---,1.00,VWS V14.01,2013-02-14 18:57:00,
2013-02-14 14:00:00,75.8,68.8,30.00,South,187,5.0,6.2,79,0.10,,---,1.00,VWS V14.01,2013-02-14 19:00:00,
2013-02-14 14:02:00,75.6,68.9,30.00,SSE,165,2.7,6.0,80,0.10,,---,1.00,VWS V14.01,2013-02-14 19:02:00,
2013-02-14 14:05:00,75.8,69.6,30.00,SSE,149,0.0,4.7,81,0.10,,---,1.00,VWS V14.01,2013-02-14 19:05:00,
2013-02-14 14:07:00,75.9,69.6,30.00,East,90,0.0,6.6,81,0.10,,---,1.00,VWS V14.01,2013-02-14 19:07:00,
2013-02-14 14:10:00,76.1,69.4,30.00,SE,135,7.6,8.6,80,0.10,,---,1.00,VWS V14.01,2013-02-14 19:10:00,
2013-02-14 14:12:00,76.1,69.4,29.99,ESE,122,0.0,0.0,80,0.10,,---,1.00,VWS V14.01,2013-02-14 19:12:00,
2013-02-14 14:15:00,76.3,69.5,30.00,SE,145,0.0,3.9,80,0.10,,---,1.00,VWS V14.01,2013-02-14 19:15:00,
2013-02-14 14:17:00,76.4,69.8,30.00,East,84,3.0,3.0,80,0.10,,---,1.00,VWS V14.01,2013-02-14 19:17:00,
2013-02-14 14:20:00,76.5,69.6,30.00,NNE,20,0.0,0.0,79,0.10,,---,1.00,VWS V14.01,2013-02-14 19:20:00,
2013-02-14 14:21:00,76.3,69.7,30.00,NNE,20,2.9,2.9,80,0.10,,---,1.00,VWS V14.01,2013-02-14 19:21:00,
2013-02-14 14:22:00,76.1,69.3,30.00,East,80,5.7,6.5,80,0.10,,---,1.00,VWS V14.01,2013-02-14 19:22:00,
2013-02-14 14:25:00,75.8,69.2,29.99,NE,51,0.4,2.2,80,0.10,,---,1.00,VWS V14.01,2013-02-14 19:25:00,
2013-02-14 14:26:00,75.7,69.2,29.99,SE,136,0.0,3.9,80,0.10,,---,1.00,VWS V14.01,2013-02-14 19:26:00,
2013-02-14 14:27:00,75.5,69.3,29.99,SE,135,2.4,5.6,81,0.10,,---,1.00,VWS V14.01,2013-02-14 19:27:00,
2013-02-14 14:28:00,75.5,69.3,29.99,SE,135,0.0,5.6,81,0.10,,---,1.00,VWS V14.01,2013-02-14 19:28:00,
2013-02-14 14:30:00,75.7,69.7,29.99,SE,124,6.6,8.1,82,0.10,,---,1.00,VWS V14.01,2013-02-14 19:30:00,
2013-02-14 14:31:00,75.7,69.5,29.99,SE,135,2.5,8.1,81,0.10,,---,1.00,VWS V14.01,2013-02-14 19:31:00,
2013-02-14 14:33:00,75.4,68.9,29.99,SSE,152,0.4,4.8,80,0.10,,---,1.00,VWS V14.01,2013-02-14 19:33:00,
2013-02-14 14:35:00,75.4,69.2,29.99,SSE,163,2.7,2.7,81,0.00,,---,1.00,VWS V14.01,2013-02-14 19:35:00,
2013-02-14 14:36:00,75.4,69.3,29.99,ESE,121,0.5,0.5,81,0.00,,---,1.00,VWS V14.01,2013-02-14 19:36:00,
2013-02-14 14:38:00,75.3,69.4,29.99,ESE,121,0.0,0.0,82,0.00,,---,1.00,VWS V14.01,2013-02-14 19:38:00,
2013-02-14 14:40:00,75.4,69.2,29.99,SE,131,4.9,4.9,81,0.00,,---,1.00,VWS V14.01,2013-02-14 19:40:00,
2013-02-14 14:41:00,75.3,68.9,29.99,SSE,165,4.0,4.3,81,0.10,,---,1.10,VWS V14.01,2013-02-14 19:41:00,
2013-02-14 14:43:00,75.4,69.3,29.99,SE,132,0.0,7.5,81,0.10,,---,1.10,VWS V14.01,2013-02-14 19:43:00,
2013-02-14 14:45:00,75.4,69.1,29.99,East,98,3.9,4.7,81,0.10,,---,1.10,VWS V14.01,2013-02-14 19:45:00,
2013-02-14 14:47:00,75.4,68.9,29.99,East,90,4.5,8.5,80,0.10,,---,1.10,VWS V14.01,2013-02-14 19:47:00,
2013-02-14 14:48:00,75.3,69.0,29.99,ENE,77,2.7,6.1,81,0.10,,---,1.10,VWS V14.01,2013-02-14 19:48:00,
2013-02-14 14:51:00,75.0,68.9,30.00,South,174,5.3,8.5,81,0.10,,---,1.10,VWS V14.01,2013-02-14 19:51:00,
2013-02-14 14:52:00,75.0,68.9,30.00,South,173,8.6,9.3,81,0.10,,---,1.10,VWS V14.01,2013-02-14 19:52:00,
2013-02-14 14:53:00,74.9,69.0,30.00,SSE,156,7.3,9.2,82,0.10,,---,1.10,VWS V14.01,2013-02-14 19:53:00,
2013-02-14 14:57:00,74.7,68.9,30.00,South,176,3.2,6.3,82,0.10,,---,1.10,VWS V14.01,2013-02-14 19:57:00,
2013-02-14 14:58:00,74.7,69.0,30.00,ESE,107,2.9,7.3,82,0.10,,---,1.10,VWS V14.01,2013-02-14 19:58:00,
2013-02-14 15:02:00,74.3,68.7,30.00,SSE,159,6.0,7.1,83,0.10,,---,1.10,VWS V14.01,2013-02-14 20:02:00,
2013-02-14 15:03:00,74.3,68.9,30.00,South,186,3.2,6.3,83,0.10,,---,1.10,VWS V14.01,2013-02-14 20:03:00,
2013-02-14 15:07:00,74.0,68.7,29.99,SSE,159,5.3,7.6,84,0.10,,---,1.10,VWS V14.01,2013-02-14 20:07:00,
2013-02-14 15:08:00,74.0,68.7,29.99,SSE,163,10.1,10.1,84,0.10,,---,1.10,VWS V14.01,2013-02-14 20:08:00,
2013-02-14 15:12:00,73.7,68.6,29.99,SSE,167,5.7,8.1,84,0.10,,---,1.10,VWS V14.01,2013-02-14 20:12:00,
2013-02-14 15:13:00,73.8,68.9,29.99,East,101,6.6,7.0,85,0.10,,---,1.10,VWS V14.01,2013-02-14 20:13:00,
2013-02-14 15:17:00,73.9,69.2,29.99,SE,136,2.9,5.8,85,0.10,,---,1.10,VWS V14.01,2013-02-14 20:17:00,
2013-02-14 15:18:00,73.7,69.0,29.99,SSE,159,4.0,5.7,85,0.10,,---,1.10,VWS V14.01,2013-02-14 20:18:00,
2013-02-14 15:22:00,73.6,68.9,29.98,SSE,159,6.6,9.5,85,0.10,,---,1.10,VWS V14.01,2013-02-14 20:22:00,
2013-02-14 15:23:00,73.8,69.2,29.98,North,8,4.8,5.3,86,0.10,,---,1.10,VWS V14.01,2013-02-14 20:23:00,
2013-02-14 15:24:00,73.8,69.2,29.98,SE,135,3.7,5.3,86,0.10,,---,1.10,VWS V14.01,2013-02-14 20:24:00,
2013-02-14 15:27:00,73.7,69.0,29.98,NE,52,5.8,8.8,85,0.10,,---,1.10,VWS V14.01,2013-02-14 20:27:00,
2013-02-14 15:28:00,73.7,69.0,29.98,SE,132,6.9,7.9,85,0.10,,---,1.10,VWS V14.01,2013-02-14 20:28:00,
2013-02-14 15:29:00,73.7,69.2,29.98,SSE,148,3.1,9.1,86,0.10,,---,1.10,VWS V14.01,2013-02-14 20:29:00,
2013-02-14 15:32:00,73.6,69.2,29.98,SE,138,6.0,6.0,86,0.10,,---,1.10,VWS V14.01,2013-02-14 20:32:00,
2013-02-14 15:33:00,73.6,69.2,29.97,ENE,58,0.3,6.0,86,0.10,,---,1.10,VWS V14.01,2013-02-14 20:33:00,
2013-02-14 15:34:00,73.7,69.3,29.97,SSE,153,5.2,7.4,86,0.10,,---,1.10,VWS V14.01,2013-02-14 20:34:00,
2013-02-14 15:38:00,73.5,69.1,29.96,East,83,4.6,8.5,86,0.10,,---,1.10,VWS V14.01,2013-02-14 20:38:00,
2013-02-14 15:39:00,73.5,69.0,29.96,ESE,103,5.2,10.6,86,0.10,,---,1.10,VWS V14.01,2013-02-14 20:39:00,
2013-02-14 15:43:00,73.3,68.9,29.97,ESE,110,4.7,12.1,86,0.00,,---,1.10,VWS V14.01,2013-02-14 20:43:00,
2013-02-14 15:44:00,73.4,69.0,29.97,NE,34,6.2,7.8,86,0.00,,---,1.10,VWS V14.01,2013-02-14 20:44:00,
2013-02-14 15:48:00,73.3,69.1,29.96,ESE,114,3.9,6.5,87,0.00,,---,1.10,VWS V14.01,2013-02-14 20:48:00,
2013-02-14 15:49:00,73.1,68.9,29.96,ENE,66,7.5,12.7,87,0.00,,---,1.10,VWS V14.01,2013-02-14 20:49:00,
2013-02-14 15:50:00,73.2,69.0,29.96,ENE,76,5.1,8.4,87,0.00,,---,1.10,VWS V14.01,2013-02-14 20:50:00,
2013-02-14 15:53:00,73.1,69.0,29.97,ESE,110,3.5,8.9,87,0.00,,---,1.10,VWS V14.01,2013-02-14 20:53:00,
2013-02-14 15:54:00,73.3,69.2,29.97,SSE,162,2.2,6.5,87,0.00,,---,1.10,VWS V14.01,2013-02-14 20:54:00,
2013-02-14 15:55:00,73.2,69.1,29.97,East,98,5.5,7.3,87,0.00,,---,1.10,VWS V14.01,2013-02-14 20:55:00,
2013-02-14 15:58:00,73.2,69.2,29.96,East,91,7.0,9.3,87,0.00,,---,1.10,VWS V14.01,2013-02-14 20:58:00,
2013-02-14 15:59:00,73.2,69.2,29.97,ENE,66,3.4,4.8,87,0.00,,---,1.10,VWS V14.01,2013-02-14 20:59:00,
2013-02-14 16:00:00,73.3,69.3,29.97,ESE,111,7.5,8.2,87,0.00,,---,1.10,VWS V14.01,2013-02-14 21:00:00,
2013-02-14 16:03:00,73.1,69.3,29.97,ESE,103,8.3,8.3,88,0.00,,---,1.10,VWS V14.01,2013-02-14 21:03:00,
2013-02-14 16:04:00,73.0,69.3,29.97,East,93,3.0,6.1,88,0.00,,---,1.10,VWS V14.01,2013-02-14 21:04:00,
2013-02-14 16:05:00,73.0,69.4,29.97,SSE,162,3.9,8.9,88,0.00,,---,1.10,VWS V14.01,2013-02-14 21:05:00,
2013-02-14 16:08:00,72.7,69.2,29.98,East,86,3.6,4.8,89,0.00,,---,1.10,VWS V14.01,2013-02-14 21:08:00,
2013-02-14 16:09:00,72.5,69.2,29.98,East,79,6.2,7.3,89,0.00,,---,1.10,VWS V14.01,2013-02-14 21:09:00,
2013-02-14 16:10:00,72.7,69.4,29.98,ENE,69,4.5,7.3,89,0.00,,---,1.10,VWS V14.01,2013-02-14 21:10:00,
2013-02-14 16:13:00,72.4,69.1,29.97,SSE,150,1.1,4.7,90,0.00,,---,1.10,VWS V14.01,2013-02-14 21:13:00,
2013-02-14 16:14:00,72.4,69.2,29.97,ENE,62,1.6,3.5,90,0.00,,---,1.10,VWS V14.01,2013-02-14 21:14:00,
2013-02-14 16:15:00,72.2,69.1,29.97,ESE,122,1.1,8.0,90,0.00,,---,1.10,VWS V14.01,2013-02-14 21:15:00,
2013-02-14 16:18:00,72.1,69.1,29.97,ENE,77,0.9,2.1,90,0.00,,---,1.10,VWS V14.01,2013-02-14 21:18:00,
2013-02-14 16:19:00,72.1,69.1,29.97,ESE,121,1.6,3.6,90,0.00,,---,1.10,VWS V14.01,2013-02-14 21:19:00,
2013-02-14 16:20:00,72.0,69.0,29.97,East,89,0.0,2.8,90,0.00,,---,1.10,VWS V14.01,2013-02-14 21:20:00,
2013-02-14 16:23:00,71.9,69.1,29.97,East,98,2.2,2.5,91,0.00,,---,1.10,VWS V14.01,2013-02-14 21:23:00,
2013-02-14 16:24:00,71.6,68.8,29.97,NNE,32,3.0,6.8,91,0.00,,---,1.10,VWS V14.01,2013-02-14 21:24:00,
2013-02-14 16:25:00,71.8,69.0,29.97,East,84,0.8,6.7,91,0.00,,---,1.10,VWS V14.01,2013-02-14 21:25:00,
2013-02-14 16:28:00,71.6,68.8,29.97,ESE,111,0.0,0.0,91,0.00,,---,1.10,VWS V14.01,2013-02-14 21:28:00,
2013-02-14 16:29:00,71.8,69.0,29.97,SE,135,2.5,2.5,91,0.00,,---,1.10,VWS V14.01,2013-02-14 21:29:00,
2013-02-14 16:30:00,71.6,68.8,29.98,ENE,66,0.0,0.0,91,0.00,,---,1.10,VWS V14.01,2013-02-14 21:30:00,
2013-02-14 16:33:00,71.6,68.8,29.98,ENE,62,1.0,3.8,91,0.00,,---,1.10,VWS V14.01,2013-02-14 21:33:00,
2013-02-14 16:34:00,71.6,68.8,29.98,North,1,1.6,3.8,91,0.00,,---,1.10,VWS V14.01,2013-02-14 21:34:00,
2013-02-14 16:35:00,71.5,68.6,29.99,NW,312,1.6,1.9,91,0.00,,---,1.10,VWS V14.01,2013-02-14 21:35:00,
2013-02-14 16:38:00,71.5,68.6,29.99,NW,304,5.7,5.8,91,0.00,,---,1.10,VWS V14.01,2013-02-14 21:38:00,
2013-02-14 16:39:00,71.4,68.6,30.00,NW,314,3.9,6.0,91,0.00,,---,1.10,VWS V14.01,2013-02-14 21:39:00,
2013-02-14 16:40:00,71.4,68.7,30.00,NW,325,6.5,6.5,91,0.00,,---,1.10,VWS V14.01,2013-02-14 21:40:00,
2013-02-14 16:43:00,70.5,67.8,30.01,NW,312,10.7,12.7,91,0.00,,---,1.10,VWS V14.01,2013-02-14 21:43:00,
2013-02-14 16:44:00,70.2,67.4,30.01,NW,312,9.3,12.7,91,0.00,,---,1.10,VWS V14.01,2013-02-14 21:44:00,
2013-02-14 16:45:00,70.0,67.3,30.01,NW,314,5.5,8.6,91,0.00,,---,1.10,VWS V14.01,2013-02-14 21:45:00,
2013-02-14 16:48:00,69.5,66.9,30.01,NNW,345,8.5,10.1,92,0.00,,---,1.10,VWS V14.01,2013-02-14 21:48:00,
2013-02-14 16:49:00,69.3,66.8,30.00,NNW,329,7.7,10.1,92,0.00,,---,1.10,VWS V14.01,2013-02-14 21:49:00,
2013-02-14 16:50:00,69.2,66.8,29.99,North,10,5.7,5.7,92,0.00,,---,1.10,VWS V14.01,2013-02-14 21:50:00,
2013-02-14 16:51:00,69.2,66.8,29.99,NNE,15,7.4,7.4,92,0.00,,---,1.10,VWS V14.01,2013-02-14 21:51:00,
2013-02-14 16:53:00,68.7,66.3,29.99,ENE,69,0.0,4.5,92,0.00,,---,1.10,VWS V14.01,2013-02-14 21:53:00,
2013-02-14 16:54:00,68.7,66.4,29.99,NE,56,5.2,6.7,92,0.00,,---,1.10,VWS V14.01,2013-02-14 21:54:00,
2013-02-14 16:55:00,68.5,66.2,29.99,WNW,302,4.4,4.4,92,0.00,,---,1.10,VWS V14.01,2013-02-14 21:55:00,
2013-02-14 16:56:00,68.6,66.3,29.99,NW,326,3.6,4.4,92,0.00,,---,1.10,VWS V14.01,2013-02-14 21:56:00,
2013-02-14 16:58:00,68.4,66.2,29.99,NE,37,0.0,0.7,93,0.00,,---,1.10,VWS V14.01,2013-02-14 21:58:00,
2013-02-14 16:59:00,68.4,66.2,29.99,NNW,328,2.5,2.7,93,0.00,,---,1.10,VWS V14.01,2013-02-14 21:59:00,
2013-02-14 17:00:00,68.5,66.5,29.99,NW,315,0.6,5.3,93,0.00,,---,1.10,VWS V14.01,2013-02-14 22:00:00,
2013-02-14 17:01:00,68.5,66.5,29.99,NW,315,0.0,5.3,93,0.00,,---,1.10,VWS V14.01,2013-02-14 22:01:00,
2013-02-14 17:03:00,68.5,66.5,29.99,East,89,1.9,2.9,93,0.00,,---,1.10,VWS V14.01,2013-02-14 22:03:00,
2013-02-14 17:04:00,68.5,66.4,29.99,NW,323,2.0,2.1,93,0.00,,---,1.10,VWS V14.01,2013-02-14 22:04:00,
2013-02-14 17:06:00,68.5,66.4,29.99,WNW,302,0.0,0.0,93,0.00,,---,1.10,VWS V14.01,2013-02-14 22:06:00,
2013-02-14 17:09:00,68.4,66.4,29.98,North,1,0.7,3.5,93,0.10,,---,1.20,VWS V14.01,2013-02-14 22:09:00,
2013-02-14 17:10:00,68.7,66.7,29.98,NNW,346,0.0,0.0,93,0.10,,---,1.20,VWS V14.01,2013-02-14 22:10:00,
2013-02-14 17:11:00,68.6,66.6,29.98,NNW,346,0.0,0.0,93,0.10,,---,1.20,VWS V14.01,2013-02-14 22:11:00,
2013-02-14 17:14:00,68.9,66.9,29.98,North,10,0.6,2.7,93,0.10,,---,1.20,VWS V14.01,2013-02-14 22:14:00,
2013-02-14 17:15:00,69.0,67.0,29.98,East,84,0.0,1.6,93,0.10,,---,1.20,VWS V14.01,2013-02-14 22:15:00,
2013-02-14 17:16:00,69.1,67.1,29.98,East,84,0.0,1.6,93,0.10,,---,1.20,VWS V14.01,2013-02-14 22:16:00,
2013-02-14 17:19:00,69.3,67.3,29.99,NNW,342,0.0,0.0,93,0.10,,---,1.20,VWS V14.01,2013-02-14 22:19:00,
2013-02-14 17:21:00,69.2,67.2,29.99,SE,138,1.2,1.9,94,0.10,,---,1.20,VWS V14.01,2013-02-14 22:21:00,
2013-02-14 17:24:00,69.3,67.4,29.99,NNW,338,3.2,3.4,94,0.10,,---,1.20,VWS V14.01,2013-02-14 22:24:00,
2013-02-14 17:26:00,69.3,67.4,29.99,NNE,21,1.7,6.0,94,0.10,,---,1.20,VWS V14.01,2013-02-14 22:26:00,
2013-02-14 17:29:00,69.3,67.3,30.00,NE,37,5.0,6.1,94,0.10,,---,1.20,VWS V14.01,2013-02-14 22:29:00,
2013-02-14 17:31:00,69.2,67.2,30.00,NNW,339,0.0,4.9,94,0.10,,---,1.20,VWS V14.01,2013-02-14 22:31:00,
2013-02-14 17:34:00,69.3,67.4,30.01,NNW,345,3.4,3.9,94,0.10,,---,1.20,VWS V14.01,2013-02-14 22:34:00,
2013-02-14 17:36:00,69.3,67.5,30.01,NNW,329,11.5,11.5,94,0.10,,---,1.20,VWS V14.01,2013-02-14 22:36:00,
2013-02-14 17:39:00,69.0,67.2,30.01,WNW,290,9.1,13.1,94,0.10,,---,1.20,VWS V14.01,2013-02-14 22:39:00,
2013-02-14 17:41:00,68.6,66.7,30.01,NNW,335,6.8,7.3,94,0.10,,---,1.20,VWS V14.01,2013-02-14 22:41:00,
2013-02-14 17:44:00,68.3,66.4,30.01,North,10,6.6,6.6,94,0.10,,---,1.20,VWS V14.01,2013-02-14 22:44:00,
2013-02-14 17:45:00,68.4,66.5,30.01,NNW,328,5.6,6.6,94,0.10,,---,1.20,VWS V14.01,2013-02-14 22:45:00,
2013-02-14 17:46:00,68.3,66.4,30.01,North,349,3.0,3.0,94,0.10,,---,1.20,VWS V14.01,2013-02-14 22:46:00,
2013-02-14 17:47:00,68.3,66.4,30.01,North,354,0.0,3.8,94,0.10,,---,1.20,VWS V14.01,2013-02-14 22:47:00,
2013-02-14 17:49:00,68.0,66.2,30.01,NNE,22,8.7,13.9,94,0.10,,---,1.20,VWS V14.01,2013-02-14 22:49:00,
2013-02-14 17:50:00,68.0,66.2,30.00,ENE,62,3.4,13.9,94,0.10,,---,1.20,VWS V14.01,2013-02-14 22:50:00,
2013-02-14 17:51:00,68.0,66.2,30.00,NNE,28,5.4,7.1,94,0.10,,---,1.20,VWS V14.01,2013-02-14 22:51:00,
2013-02-14 17:52:00,67.8,66.1,30.00,NNW,338,3.1,7.1,94,0.10,,---,1.20,VWS V14.01,2013-02-14 22:52:00,
2013-02-14 17:54:00,67.6,65.9,30.01,North,352,1.5,1.5,94,0.10,,---,1.20,VWS V14.01,2013-02-14 22:54:00,
2013-02-14 17:55:00,67.7,66.0,30.01,NNE,32,0.0,1.5,94,0.10,,---,1.20,VWS V14.01,2013-02-14 22:55:00,
2013-02-14 17:56:00,67.6,65.9,30.01,NNE,18,3.5,6.6,94,0.10,,---,1.20,VWS V14.01,2013-02-14 22:56:00,
2013-02-14 17:57:00,67.8,66.2,30.01,East,84,4.8,8.5,95,0.10,,---,1.20,VWS V14.01,2013-02-14 22:57:00,
2013-02-14 17:59:00,67.7,66.1,30.01,North,359,5.3,9.0,95,0.10,,---,1.20,VWS V14.01,2013-02-14 22:59:00,
2013-02-14 18:00:00,67.7,66.1,30.01,SSE,153,3.4,9.0,95,0.10,,---,1.20,VWS V14.01,2013-02-14 23:00:00,
2013-02-14 18:01:00,67.4,65.8,30.01,East,98,0.0,1.2,95,0.10,,---,1.20,VWS V14.01,2013-02-14 23:01:00,
2013-02-14 18:02:00,67.7,66.1,30.01,NNE,24,1.3,3.1,95,0.10,,---,1.20,VWS V14.01,2013-02-14 23:02:00,
2013-02-14 18:04:00,67.4,65.8,30.01,North,6,2.9,6.6,95,0.10,,---,1.20,VWS V14.01,2013-02-14 23:04:00,
2013-02-14 18:05:00,67.4,65.8,30.00,East,79,8.2,8.2,94,0.10,,---,1.20,VWS V14.01,2013-02-14 23:05:00,
2013-02-14 18:06:00,67.4,65.8,30.00,North,3,4.5,6.8,95,0.10,,---,1.20,VWS V14.01,2013-02-14 23:06:00,
2013-02-14 18:07:00,67.7,66.1,30.00,ENE,58,0.9,6.8,95,0.10,,---,1.20,VWS V14.01,2013-02-14 23:07:00,
2013-02-14 18:09:00,67.4,65.8,30.01,West,273,0.0,6.2,95,0.00,,---,1.20,VWS V14.01,2013-02-14 23:09:00,
2013-02-14 18:10:00,67.3,65.7,30.01,NE,52,5.2,5.2,95,0.00,,---,1.20,VWS V14.01,2013-02-14 23:10:00,
2013-02-14 18:11:00,67.4,65.8,30.01,NNE,20,1.0,3.4,95,0.00,,---,1.20,VWS V14.01,2013-02-14 23:11:00,
2013-02-14 18:12:00,67.3,65.7,30.01,East,82,3.8,4.5,95,0.00,,---,1.20,VWS V14.01,2013-02-14 23:12:00,
2013-02-14 18:15:00,67.3,65.8,30.00,South,191,4.9,7.6,95,0.00,,---,1.20,VWS V14.01,2013-02-14 23:15:00,
2013-02-14 18:16:00,67.4,65.9,30.00,NE,42,6.2,9.4,95,0.00,,---,1.20,VWS V14.01,2013-02-14 23:16:00,
2013-02-14 18:17:00,67.4,65.9,30.00,NW,307,4.8,9.5,95,0.00,,---,1.20,VWS V14.01,2013-02-14 23:17:00,
2013-02-14 18:20:00,67.3,65.8,30.00,North,0,4.0,8.1,95,0.00,,---,1.20,VWS V14.01,2013-02-14 23:20:00,
2013-02-14 18:21:00,67.2,65.7,30.00,East,90,7.9,9.4,95,0.00,,---,1.20,VWS V14.01,2013-02-14 23:21:00,
2013-02-14 18:22:00,67.3,65.8,30.00,North,359,5.0,5.5,95,0.00,,---,1.20,VWS V14.01,2013-02-14 23:22:00,
2013-02-14 18:25:00,67.1,65.6,30.03,WNW,290,7.5,10.6,95,0.00,,---,1.20,VWS V14.01,2013-02-14 23:25:00,
2013-02-14 18:26:00,67.4,65.9,30.03,WNW,283,6.0,10.6,95,0.00,,---,1.20,VWS V14.01,2013-02-14 23:26:00,
2013-02-14 18:27:00,67.2,65.7,30.04,WNW,288,12.8,12.8,95,0.00,,---,1.20,VWS V14.01,2013-02-14 23:27:00,
2013-02-14 18:30:00,67.0,65.6,30.06,WNW,291,13.8,14.2,95,0.00,,---,1.20,VWS V14.01,2013-02-14 23:30:00,
2013-02-14 18:31:00,67.0,65.6,30.06,NW,319,10.8,18.5,95,0.00,,---,1.20,VWS V14.01,2013-02-14 23:31:00,
2013-02-14 18:32:00,66.6,65.1,30.06,NW,319,7.0,8.3,95,0.00,,---,1.20,VWS V14.01,2013-02-14 23:32:00,
2013-02-14 18:35:00,66.3,64.9,30.06,NW,309,6.7,14.7,95,0.00,,---,1.20,VWS V14.01,2013-02-14 23:35:00,
2013-02-14 18:36:00,66.4,65.0,30.06,NNW,329,5.2,14.7,95,0.00,,---,1.20,VWS V14.01,2013-02-14 23:36:00,
2013-02-14 18:37:00,66.2,64.8,30.06,NW,326,6.4,10.0,95,0.00,,---,1.20,VWS V14.01,2013-02-14 23:37:00,
2013-02-14 18:40:00,65.9,64.5,30.06,NW,318,8.5,10.6,95,0.00,,---,1.20,VWS V14.01,2013-02-14 23:40:00,
2013-02-14 18:41:00,65.9,64.5,30.06,WNW,300,7.6,14.5,95,0.00,,---,1.20,VWS V14.01,2013-02-14 23:41:00,
2013-02-14 18:42:00,65.7,64.3,30.06,West,281,10.1,12.7,95,0.00,,---,1.20,VWS V14.01,2013-02-14 23:42:00,
2013-02-14 18:46:00,65.1,63.7,30.07,NW,312,8.8,17.3,95,0.00,,---,1.20,VWS V14.01,2013-02-14 23:46:00,
2013-02-14 18:47:00,65.0,63.6,30.08,NW,314,9.3,14.8,95,0.00,,---,1.20,VWS V14.01,2013-02-14 23:47:00,
2013-02-14 18:51:00,64.7,63.3,30.06,NNW,335,5.9,10.1,95,0.00,,---,1.20,VWS V14.01,2013-02-14 23:51:00,
2013-02-14 18:52:00,64.5,63.1,30.06,NW,307,13.5,13.5,95,0.00,,---,1.20,VWS V14.01,2013-02-14 23:52:00,
2013-02-14 18:53:00,64.6,63.2,30.06,NNE,17,6.7,15.7,95,0.00,,---,1.20,VWS V14.01,2013-02-14 23:53:00,
2013-02-14 18:56:00,64.0,62.6,30.06,NW,308,6.0,15.8,95,0.00,,---,1.20,VWS V14.01,2013-02-14 23:56:00,
2013-02-14 18:57:00,64.2,62.8,30.06,WNW,298,13.7,13.7,95,0.00,,---,1.20,VWS V14.01,2013-02-14 23:57:00,
2013-02-14 18:58:00,64.1,62.7,30.05,North,359,5.3,13.7,95,0.00,,---,1.20,VWS V14.01,2013-02-14 23:58:00,
2013-02-14 19:01:00,64.1,62.7,30.05,NW,314,7.6,9.1,95,0.00,,---,1.20,VWS V14.01,2013-02-15 00:01:00,
2013-02-14 19:02:00,64.1,62.7,30.05,NNW,342,4.1,7.6,95,0.00,,---,1.20,VWS V14.01,2013-02-15 00:02:00,
2013-02-14 19:03:00,63.8,62.4,30.04,NW,315,9.5,14.0,95,0.00,,---,1.20,VWS V14.01,2013-02-15 00:03:00,
2013-02-14 19:06:00,64.0,62.6,30.05,North,3,5.8,13.5,95,0.00,,---,1.20,VWS V14.01,2013-02-15 00:06:00,
2013-02-14 19:07:00,63.7,62.3,30.05,North,359,7.7,10.4,95,0.00,,---,1.20,VWS V14.01,2013-02-15 00:07:00,
2013-02-14 19:08:00,63.7,62.3,30.05,North,8,4.5,5.5,95,0.00,,---,1.20,VWS V14.01,2013-02-15 00:08:00,
2013-02-14 19:11:00,63.6,62.2,30.05,NNE,13,2.1,5.8,95,0.00,,---,1.20,VWS V14.01,2013-02-15 00:11:00,
2013-02-14 19:12:00,63.7,62.3,30.05,NNE,13,4.6,5.8,95,0.00,,---,1.20,VWS V14.01,2013-02-15 00:12:00,
2013-02-14 19:13:00,63.6,62.2,30.05,ENE,60,6.5,6.5,95,0.00,,---,1.20,VWS V14.01,2013-02-15 00:13:00,
2013-02-14 19:16:00,63.6,62.2,30.04,ENE,69,2.8,7.7,95,0.00,,---,1.20,VWS V14.01,2013-02-15 00:16:00,
2013-02-14 19:17:00,63.5,62.1,30.04,North,1,5.7,9.1,95,0.00,,---,1.20,VWS V14.01,2013-02-15 00:17:00,
2013-02-14 19:18:00,63.6,62.2,30.04,North,349,0.0,1.6,95,0.00,,---,1.20,VWS V14.01,2013-02-15 00:18:00,
2013-02-14 19:21:00,63.3,61.9,30.04,North,359,8.9,8.9,95,0.00,,---,1.20,VWS V14.01,2013-02-15 00:21:00,
2013-02-14 19:22:00,63.4,62.1,30.05,NNW,328,6.1,9.0,95,0.00,,---,1.20,VWS V14.01,2013-02-15 00:22:00,
2013-02-14 19:23:00,63.3,62.0,30.05,NNW,346,0.2,3.4,95,0.00,,---,1.20,VWS V14.01,2013-02-15 00:23:00,
2013-02-14 19:26:00,63.3,62.0,30.06,NNE,30,3.7,4.0,95,0.00,,---,1.20,VWS V14.01,2013-02-15 00:26:00,
2013-02-14 19:27:00,63.5,62.2,30.06,North,3,7.8,13.7,95,0.00,,---,1.20,VWS V14.01,2013-02-15 00:27:00,
2013-02-14 19:28:00,63.4,62.1,30.06,NNW,328,5.5,9.2,95,0.00,,---,1.20,VWS V14.01,2013-02-15 00:28:00,
2013-02-14 19:31:00,63.3,62.0,30.06,NE,42,1.6,5.3,95,0.00,,---,1.20,VWS V14.01,2013-02-15 00:31:00,
2013-02-14 19:32:00,63.5,62.2,30.06,North,359,3.7,5.8,95,0.00,,---,1.20,VWS V14.01,2013-02-15 00:32:00,
2013-02-14 19:33:00,63.5,62.2,30.05,NNW,328,8.3,8.3,95,0.00,,---,1.20,VWS V14.01,2013-02-15 00:33:00,
2013-02-14 19:37:00,63.5,62.2,30.05,NE,49,6.5,8.8,95,0.00,,---,1.20,VWS V14.01,2013-02-15 00:37:00,
2013-02-14 19:38:00,63.5,62.2,30.05,East,94,4.3,6.1,95,0.00,,---,1.20,VWS V14.01,2013-02-15 00:38:00,
2013-02-14 19:42:00,63.5,62.2,30.06,North,6,2.1,9.2,95,0.00,,---,1.20,VWS V14.01,2013-02-15 00:42:00,
2013-02-14 19:43:00,63.5,62.2,30.06,North,11,3.5,7.6,95,0.00,,---,1.20,VWS V14.01,2013-02-15 00:43:00,
2013-02-14 19:44:00,63.5,62.2,30.06,NE,39,1.7,5.4,95,0.00,,---,1.20,VWS V14.01,2013-02-15 00:44:00,
2013-02-14 19:47:00,63.6,62.3,30.06,North,359,2.2,9.3,95,0.00,,---,1.20,VWS V14.01,2013-02-15 00:47:00,
2013-02-14 19:48:00,63.8,62.5,30.06,NNW,346,4.3,4.3,95,0.00,,---,1.20,VWS V14.01,2013-02-15 00:48:00,
2013-02-14 19:49:00,63.7,62.4,30.06,NNE,24,3.8,5.0,95,0.00,,---,1.20,VWS V14.01,2013-02-15 00:49:00,
2013-02-14 19:52:00,63.7,62.4,30.05,NE,35,1.4,4.7,95,0.00,,---,1.20,VWS V14.01,2013-02-15 00:52:00,
2013-02-14 19:53:00,63.8,62.5,30.06,North,0,3.3,3.3,95,0.00,,---,1.20,VWS V14.01,2013-02-15 00:53:00,
2013-02-14 19:54:00,63.8,62.5,30.06,NNE,18,4.1,7.0,95,0.00,,---,1.20,VWS V14.01,2013-02-15 00:54:00,
2013-02-14 19:57:00,63.8,62.5,30.06,NE,34,4.5,9.5,95,0.00,,---,1.20,VWS V14.01,2013-02-15 00:57:00,
2013-02-14 19:58:00,63.8,62.5,30.07,NE,45,8.6,8.6,95,0.00,,---,1.20,VWS V14.01,2013-02-15 00:58:00,
2013-02-14 19:59:00,63.9,62.6,30.06,NNE,17,6.0,8.1,95,0.00,,---,1.20,VWS V14.01,2013-02-15 00:59:00,
2013-02-14 20:02:00,64.0,62.6,30.06,NNW,339,3.3,3.7,95,0.00,,---,1.20,VWS V14.01,2013-02-15 01:02:00,
2013-02-14 20:03:00,63.8,62.4,30.06,NNE,20,4.1,7.6,95,0.00,,---,1.20,VWS V14.01,2013-02-15 01:03:00,
2013-02-14 20:04:00,63.6,62.2,30.06,NNE,17,13.3,13.3,95,0.00,,---,1.20,VWS V14.01,2013-02-15 01:04:00,
2013-02-14 20:07:00,63.5,62.1,30.06,NNW,342,3.4,6.1,95,0.00,,---,1.20,VWS V14.01,2013-02-15 01:07:00,
2013-02-14 20:08:00,63.5,62.1,30.06,NW,323,5.9,6.1,95,0.00,,---,1.20,VWS V14.01,2013-02-15 01:08:00,
2013-02-14 20:09:00,63.5,62.1,30.06,NNE,30,3.0,3.7,95,0.00,,---,1.20,VWS V14.01,2013-02-15 01:09:00,
2013-02-14 20:12:00,63.5,62.1,30.07,NNE,27,4.3,8.7,95,0.00,,---,1.20,VWS V14.01,2013-02-15 01:12:00,
2013-02-14 20:13:00,63.4,62.0,30.07,North,1,4.3,9.2,95,0.00,,---,1.20,VWS V14.01,2013-02-15 01:13:00,
2013-02-14 20:14:00,63.3,61.9,30.07,NNW,347,4.6,6.2,95,0.00,,---,1.20,VWS V14.01,2013-02-15 01:14:00,
2013-02-14 20:17:00,63.2,61.8,30.06,NE,39,1.7,4.7,95,0.00,,---,1.20,VWS V14.01,2013-02-15 01:17:00,
2013-02-14 20:18:00,63.2,61.8,30.06,NW,321,11.7,11.7,95,0.00,,---,1.20,VWS V14.01,2013-02-15 01:18:00,
2013-02-14 20:19:00,63.2,61.8,30.06,NW,307,0.0,0.0,95,0.00,,---,1.20,VWS V14.01,2013-02-15 01:19:00,
2013-02-14 20:22:00,63.2,61.8,30.07,NNE,27,2.1,2.3,95,0.00,,---,1.20,VWS V14.01,2013-02-15 01:22:00,
2013-02-14 20:23:00,63.3,61.9,30.07,NNE,17,1.4,2.3,95,0.00,,---,1.20,VWS V14.01,2013-02-15 01:23:00,
2013-02-14 20:24:00,63.3,61.9,30.07,NW,314,3.5,5.2,95,0.00,,---,1.20,VWS V14.01,2013-02-15 01:24:00,
2013-02-14 20:27:00,63.5,62.1,30.07,North,359,3.2,6.2,95,0.10,,---,1.30,VWS V14.01,2013-02-15 01:27:00,
2013-02-14 20:28:00,63.4,62.0,30.07,NW,323,3.8,8.3,95,0.10,,---,1.30,VWS V14.01,2013-02-15 01:28:00,
2013-02-14 20:29:00,63.4,62.0,30.07,North,359,0.0,0.4,95,0.10,,---,1.30,VWS V14.01,2013-02-15 01:29:00,
2013-02-14 20:32:00,63.3,61.9,30.07,North,356,0.0,1.7,95,0.10,,---,1.30,VWS V14.01,2013-02-15 01:32:00,
2013-02-14 20:33:00,63.4,62.0,30.07,NNE,21,0.2,1.7,95,0.10,,---,1.30,VWS V14.01,2013-02-15 01:33:00,
2013-02-14 20:34:00,63.4,62.0,30.06,North,354,2.0,2.1,95,0.10,,---,1.30,VWS V14.01,2013-02-15 01:34:00,
2013-02-14 20:37:00,63.4,62.0,30.06,ENE,65,7.9,8.8,95,0.10,,---,1.30,VWS V14.01,2013-02-15 01:37:00,
2013-02-14 20:38:00,63.5,62.1,30.06,North,4,0.2,0.2,95,0.10,,---,1.30,VWS V14.01,2013-02-15 01:38:00,
2013-02-14 20:39:00,63.5,62.1,30.06,NNE,22,3.2,4.2,95,0.10,,---,1.30,VWS V14.01,2013-02-15 01:39:00,
2013-02-14 20:42:00,63.6,62.2,30.07,North,3,0.0,0.0,95,0.10,,---,1.30,VWS V14.01,2013-02-15 01:42:00,
2013-02-14 20:43:00,63.5,62.1,30.07,NNW,339,2.9,4.9,95,0.10,,---,1.30,VWS V14.01,2013-02-15 01:43:00,
2013-02-14 20:44:00,63.7,62.3,30.07,NE,52,2.2,4.0,95,0.10,,---,1.30,VWS V14.01,2013-02-15 01:44:00,
2013-02-14 20:47:00,63.6,62.2,30.07,NNE,20,6.5,6.5,95,0.10,,---,1.30,VWS V14.01,2013-02-15 01:47:00,
2013-02-14 20:48:00,63.6,62.2,30.06,NNW,339,3.5,5.2,95,0.10,,---,1.30,VWS V14.01,2013-02-15 01:48:00,
2013-02-14 20:50:00,63.7,62.3,30.06,West,277,1.7,6.6,95,0.10,,---,1.30,VWS V14.01,2013-02-15 01:50:00,
2013-02-14 20:52:00,63.5,62.1,30.07,North,353,1.9,1.9,95,0.10,,---,1.30,VWS V14.01,2013-02-15 01:52:00,
2013-02-14 20:53:00,63.6,62.2,30.07,NNW,329,3.2,3.2,95,0.10,,---,1.30,VWS V14.01,2013-02-15 01:53:00,
2013-02-14 20:55:00,63.7,62.3,30.07,NNW,329,2.4,6.2,95,0.10,,---,1.30,VWS V14.01,2013-02-15 01:55:00,
2013-02-14 20:58:00,63.6,62.2,30.07,East,98,0.0,4.9,95,0.10,,---,1.30,VWS V14.01,2013-02-15 01:58:00,
2013-02-14 21:00:00,63.8,62.4,30.07,NNW,336,5.3,5.3,95,0.10,,---,1.30,VWS V14.01,2013-02-15 02:00:00,
2013-02-14 21:03:00,63.9,62.5,30.08,North,1,2.7,4.2,95,0.10,,---,1.30,VWS V14.01,2013-02-15 02:03:00,
2013-02-14 21:04:00,63.6,62.2,30.08,WNW,302,6.3,6.6,95,0.10,,---,1.30,VWS V14.01,2013-02-15 02:04:00,
2013-02-14 21:05:00,63.8,62.4,30.08,North,359,2.8,7.9,95,0.10,,---,1.30,VWS V14.01,2013-02-15 02:05:00,
2013-02-14 21:08:00,63.8,62.4,30.08,WNW,302,1.9,4.4,95,0.10,,---,1.30,VWS V14.01,2013-02-15 02:08:00,
2013-02-14 21:09:00,63.6,62.2,30.08,North,359,6.3,8.2,95,0.10,,---,1.30,VWS V14.01,2013-02-15 02:09:00,
2013-02-14 21:10:00,63.8,62.4,30.08,NW,309,2.9,3.1,95,0.10,,---,1.30,VWS V14.01,2013-02-15 02:10:00,
2013-02-14 21:13:00,63.7,62.3,30.08,NNE,17,1.8,7.1,95,0.10,,---,1.30,VWS V14.01,2013-02-15 02:13:00,
2013-02-14 21:14:00,63.8,62.4,30.08,NNW,333,0.0,9.3,95,0.10,,---,1.30,VWS V14.01,2013-02-15 02:14:00,
2013-02-14 21:15:00,63.8,62.4,30.08,WNW,297,1.7,3.4,95,0.10,,---,1.30,VWS V14.01,2013-02-15 02:15:00,
2013-02-14 21:18:00,63.9,62.5,30.09,North,3,4.4,6.3,95,0.10,,---,1.30,VWS V14.01,2013-02-15 02:18:00,
2013-02-14 21:19:00,63.7,62.3,30.09,NNE,28,3.4,8.5,95,0.10,,---,1.30,VWS V14.01,2013-02-15 02:19:00,
2013-02-14 21:20:00,63.8,62.4,30.09,NW,323,3.8,3.8,95,0.10,,---,1.30,VWS V14.01,2013-02-15 02:20:00,
2013-02-14 21:23:00,63.8,62.4,30.09,NNW,345,0.0,2.0,95,0.10,,---,1.30,VWS V14.01,2013-02-15 02:23:00,
2013-02-14 21:24:00,63.7,62.3,30.09,NE,48,3.8,7.5,95,0.10,,---,1.30,VWS V14.01,2013-02-15 02:24:00,
2013-02-14 21:25:00,63.7,62.3,30.09,North,356,0.9,6.5,95,0.10,,---,1.30,VWS V14.01,2013-02-15 02:25:00,
2013-02-14 21:28:00,63.5,62.1,30.10,North,4,3.1,4.7,95,0.00,,---,1.30,VWS V14.01,2013-02-15 02:28:00,
2013-02-14 21:29:00,63.7,62.3,30.10,North,359,5.7,6.2,95,0.00,,---,1.30,VWS V14.01,2013-02-15 02:29:00,
2013-02-14 21:30:00,63.7,62.3,30.10,NNW,335,3.5,7.0,95,0.00,,---,1.30,VWS V14.01,2013-02-15 02:30:00,
2013-02-14 21:33:00,63.6,62.2,30.10,NE,41,3.5,3.5,95,0.00,,---,1.30,VWS V14.01,2013-02-15 02:33:00,
2013-02-14 21:34:00,63.8,62.4,30.10,North,357,5.8,6.3,95,0.00,,---,1.30,VWS V14.01,2013-02-15 02:34:00,
2013-02-14 21:35:00,63.6,62.2,30.10,North,354,1.6,9.1,95,0.00,,---,1.30,VWS V14.01,2013-02-15 02:35:00,
2013-02-14 21:36:00,63.8,62.4,30.10,North,354,0.0,0.7,95,0.00,,---,1.30,VWS V14.01,2013-02-15 02:36:00,
2013-02-14 21:38:00,63.8,62.4,30.10,North,354,0.0,1.0,95,0.00,,---,1.30,VWS V14.01,2013-02-15 02:38:00,
2013-02-14 21:39:00,63.6,62.2,30.10,West,274,3.6,6.5,95,0.00,,---,1.30,VWS V14.01,2013-02-15 02:39:00,
2013-02-14 21:40:00,63.6,62.2,30.10,NNW,332,5.3,6.5,95,0.00,,---,1.30,VWS V14.01,2013-02-15 02:40:00,
2013-02-14 21:41:00,63.6,62.2,30.10,North,359,3.0,3.9,95,0.00,,---,1.30,VWS V14.01,2013-02-15 02:41:00,
2013-02-14 21:43:00,63.6,62.2,30.10,NNW,345,0.7,3.5,95,0.00,,---,1.30,VWS V14.01,2013-02-15 02:43:00,
2013-02-14 21:44:00,63.6,62.2,30.10,NNE,13,2.2,3.4,95,0.00,,---,1.30,VWS V14.01,2013-02-15 02:44:00,
2013-02-14 21:45:00,63.6,62.2,30.10,NW,314,6.8,6.8,95,0.00,,---,1.30,VWS V14.01,2013-02-15 02:45:00,
2013-02-14 21:46:00,63.7,62.3,30.10,North,6,0.0,2.7,95,0.00,,---,1.30,VWS V14.01,2013-02-15 02:46:00,
2013-02-14 21:48:00,63.6,62.2,30.10,ENE,75,2.1,2.1,95,0.00,,---,1.30,VWS V14.01,2013-02-15 02:48:00,
2013-02-14 21:50:00,63.7,62.3,30.10,NE,55,0.9,2.8,95,0.00,,---,1.30,VWS V14.01,2013-02-15 02:50:00,
2013-02-14 21:51:00,63.5,62.1,30.10,NNE,13,0.0,5.2,95,0.00,,---,1.30,VWS V14.01,2013-02-15 02:51:00,
2013-02-14 21:54:00,63.5,62.1,30.10,ESE,111,2.0,4.4,95,0.00,,---,1.30,VWS V14.01,2013-02-15 02:54:00,
2013-02-14 21:55:00,63.6,62.2,30.10,NE,48,1.9,1.9,95,0.00,,---,1.30,VWS V14.01,2013-02-15 02:55:00,
2013-02-14 21:56:00,63.6,62.2,30.10,NE,56,0.0,0.0,95,0.00,,---,1.30,VWS V14.01,2013-02-15 02:56:00,
2013-02-14 21:59:00,63.7,62.3,30.11,North,359,0.0,3.1,95,0.00,,---,1.30,VWS V14.01,2013-02-15 02:59:00,
2013-02-14 22:00:00,63.4,62.0,30.10,NE,44,2.6,3.5,95,0.00,,---,1.30,VWS V14.01,2013-02-15 03:00:00,
2013-02-14 22:01:00,63.7,62.3,30.10,East,89,0.0,0.0,95,0.00,,---,1.30,VWS V14.01,2013-02-15 03:01:00,
2013-02-14 22:04:00,63.6,62.2,30.10,East,91,5.2,5.2,95,0.00,,---,1.30,VWS V14.01,2013-02-15 03:04:00,
2013-02-14 22:05:00,63.5,62.1,30.09,SE,138,5.7,13.3,95,0.00,,---,1.30,VWS V14.01,2013-02-15 03:05:00,
2013-02-14 22:06:00,63.3,61.9,30.09,ENE,65,3.9,6.3,95,0.00,,---,1.30,VWS V14.01,2013-02-15 03:06:00,
2013-02-14 22:09:00,63.5,62.1,30.09,NNE,31,0.4,4.8,95,0.00,,---,1.30,VWS V14.01,2013-02-15 03:09:00,
2013-02-14 22:10:00,63.6,62.2,30.09,North,8,0.0,0.0,95,0.00,,---,1.30,VWS V14.01,2013-02-15 03:10:00,
2013-02-14 22:12:00,63.5,62.1,30.10,North,8,1.2,1.2,95,0.00,,---,1.30,VWS V14.01,2013-02-15 03:12:00,
2013-02-14 22:14:00,63.5,62.1,30.10,NW,318,5.8,7.7,95,0.00,,---,1.30,VWS V14.01,2013-02-15 03:14:00,
2013-02-14 22:15:00,63.4,62.0,30.10,North,359,4.8,5.8,95,0.00,,---,1.30,VWS V14.01,2013-02-15 03:15:00,
2013-02-14 22:17:00,63.5,62.1,30.11,NW,321,2.0,2.8,95,0.00,,---,1.30,VWS V14.01,2013-02-15 03:17:00,
2013-02-14 22:19:00,63.5,62.1,30.10,ENE,69,0.0,0.0,95,0.00,,---,1.30,VWS V14.01,2013-02-15 03:19:00,
2013-02-14 22:20:00,63.5,62.1,30.10,ENE,69,0.0,0.0,95,0.00,,---,1.30,VWS V14.01,2013-02-15 03:20:00,
2013-02-14 22:22:00,63.5,62.1,30.10,ENE,76,0.0,2.4,95,0.00,,---,1.30,VWS V14.01,2013-02-15 03:22:00,
2013-02-14 22:24:00,63.4,62.0,30.10,NNE,21,3.2,6.8,95,0.00,,---,1.30,VWS V14.01,2013-02-15 03:24:00,
2013-02-14 22:25:00,63.4,62.0,30.10,NNE,21,0.7,0.7,95,0.00,,---,1.30,VWS V14.01,2013-02-15 03:25:00,
2013-02-14 22:26:00,63.4,62.0,30.10,NW,326,3.5,4.4,95,0.00,,---,1.30,VWS V14.01,2013-02-15 03:26:00,
2013-02-14 22:27:00,63.3,61.9,30.10,North,10,0.0,0.0,95,0.00,,---,1.30,VWS V14.01,2013-02-15 03:27:00,
2013-02-14 22:29:00,63.4,62.0,30.10,ENE,77,0.7,3.0,95,0.00,,---,1.30,VWS V14.01,2013-02-15 03:29:00,
2013-02-14 22:30:00,63.3,61.9,30.10,NW,316,0.0,0.0,95,0.00,,---,1.30,VWS V14.01,2013-02-15 03:30:00,
2013-02-14 22:31:00,63.2,61.8,30.10,NW,316,0.0,0.0,95,0.00,,---,1.30,VWS V14.01,2013-02-15 03:31:00,
2013-02-14 22:32:00,63.3,61.9,30.10,NW,316,0.0,0.0,95,0.00,,---,1.30,VWS V14.01,2013-02-15 03:32:00,
2013-02-14 22:34:00,63.4,62.0,30.11,NNW,339,3.2,5.2,95,0.00,,---,1.30,VWS V14.01,2013-02-15 03:34:00,
2013-02-14 22:35:00,63.2,61.8,30.11,NW,315,1.2,5.4,95,0.10,,---,1.40,VWS V14.01,2013-02-15 03:35:00,
2013-02-14 22:36:00,63.4,62.0,30.11,NW,315,0.6,5.4,95,0.10,,---,1.40,VWS V14.01,2013-02-15 03:36:00,
2013-02-14 22:37:00,63.4,62.0,30.11,NW,315,1.0,2.0,95,0.10,,---,1.40,VWS V14.01,2013-02-15 03:37:00,
2013-02-14 22:39:00,63.3,61.9,30.11,NNW,346,0.0,0.0,95,0.10,,---,1.40,VWS V14.01,2013-02-15 03:39:00,
2013-02-14 22:41:00,63.3,61.9,30.11,North,359,2.7,4.3,95,0.10,,---,1.40,VWS V14.01,2013-02-15 03:41:00,
2013-02-14 22:43:00,63.6,62.2,30.10,NNW,347,1.3,3.1,95,0.10,,---,1.40,VWS V14.01,2013-02-15 03:43:00,
2013-02-14 22:44:00,63.4,62.0,30.10,ENE,76,1.5,4.1,95,0.10,,---,1.40,VWS V14.01,2013-02-15 03:44:00,
2013-02-14 22:46:00,63.5,62.1,30.10,NNE,18,3.5,4.9,95,0.10,,---,1.40,VWS V14.01,2013-02-15 03:46:00,
2013-02-14 22:48:00,63.5,62.1,30.10,NNE,24,0.0,0.0,95,0.10,,---,1.40,VWS V14.01,2013-02-15 03:48:00,
2013-02-14 22:49:00,63.7,62.3,30.10,NNE,24,0.0,0.0,95,0.10,,---,1.40,VWS V14.01,2013-02-15 03:49:00,
2013-02-14 22:51:00,63.5,62.1,30.10,NNE,24,0.0,0.0,95,0.10,,---,1.40,VWS V14.01,2013-02-15 03:51:00,
2013-02-14 22:53:00,63.5,62.1,30.10,SE,124,1.1,3.9,95,0.10,,---,1.40,VWS V14.01,2013-02-15 03:53:00,
2013-02-14 22:54:00,63.6,62.2,30.10,NE,56,2.7,2.7,95,0.10,,---,1.40,VWS V14.01,2013-02-15 03:54:00,
2013-02-14 22:56:00,63.4,62.0,30.10,North,6,0.7,8.3,95,0.10,,---,1.40,VWS V14.01,2013-02-15 03:56:00,
2013-02-14 22:58:00,63.4,62.0,30.10,NNE,27,2.4,8.1,95,0.10,,---,1.40,VWS V14.01,2013-02-15 03:58:00,
2013-02-14 22:59:00,63.4,62.0,30.10,East,98,0.7,5.0,95,0.10,,---,1.40,VWS V14.01,2013-02-15 03:59:00,
2013-02-14 23:01:00,63.5,62.1,30.10,NNW,339,0.0,5.3,95,0.10,,---,1.40,VWS V14.01,2013-02-15 04:01:00,
2013-02-14 23:03:00,63.3,61.9,30.10,NNE,15,0.9,6.2,95,0.10,,---,1.40,VWS V14.01,2013-02-15 04:03:00,
2013-02-14 23:04:00,63.5,62.1,30.10,East,98,1.4,3.6,95,0.10,,---,1.40,VWS V14.01,2013-02-15 04:04:00,
2013-02-14 23:06:00,63.4,62.0,30.10,NNW,335,1.4,5.7,95,0.10,,---,1.40,VWS V14.01,2013-02-15 04:06:00,
2013-02-14 23:08:00,63.3,61.9,30.10,NW,315,0.0,0.0,95,0.10,,---,1.40,VWS V14.01,2013-02-15 04:08:00,
2013-02-14 23:10:00,63.4,62.0,30.11,NW,315,0.0,0.0,95,0.10,,---,1.40,VWS V14.01,2013-02-15 04:10:00,
2013-02-14 23:11:00,63.3,61.9,30.11,North,353,4.8,6.2,95,0.10,,---,1.40,VWS V14.01,2013-02-15 04:11:00,
2013-02-14 23:13:00,63.2,61.8,30.11,NNE,15,0.0,0.0,95,0.10,,---,1.40,VWS V14.01,2013-02-15 04:13:00,
2013-02-14 23:15:00,63.2,61.8,30.10,ENE,63,1.7,3.5,95,0.10,,---,1.40,VWS V14.01,2013-02-15 04:15:00,
2013-02-14 23:16:00,63.3,61.9,30.10,North,1,0.0,3.2,95,0.10,,---,1.40,VWS V14.01,2013-02-15 04:16:00,
2013-02-14 23:18:00,63.1,61.7,30.10,NNE,15,0.0,1.8,95,0.10,,---,1.40,VWS V14.01,2013-02-15 04:18:00,
2013-02-14 23:20:00,63.1,61.7,30.10,North,359,5.3,5.3,95,0.10,,---,1.40,VWS V14.01,2013-02-15 04:20:00,
2013-02-14 23:21:00,63.3,61.9,30.09,North,8,0.7,5.7,95,0.10,,---,1.40,VWS V14.01,2013-02-15 04:21:00,
2013-02-14 23:23:00,63.1,61.7,30.09,North,10,3.9,5.8,95,0.10,,---,1.40,VWS V14.01,2013-02-15 04:23:00,
2013-02-14 23:25:00,63.0,61.6,30.09,NE,44,0.0,1.9,95,0.10,,---,1.40,VWS V14.01,2013-02-15 04:25:00,
2013-02-14 23:26:00,63.1,61.7,30.09,NE,45,0.0,0.0,95,0.10,,---,1.40,VWS V14.01,2013-02-15 04:26:00,
2013-02-14 23:29:00,63.1,61.7,30.09,NE,55,1.6,3.8,95,0.10,,---,1.40,VWS V14.01,2013-02-15 04:29:00,
2013-02-14 23:30:00,63.1,61.7,30.09,West,260,0.0,8.3,95,0.10,,---,1.40,VWS V14.01,2013-02-15 04:30:00,
2013-02-14 23:31:00,63.3,61.9,30.09,East,83,1.7,4.2,95,0.10,,---,1.40,VWS V14.01,2013-02-15 04:31:00,
2013-02-14 23:32:00,63.2,61.8,30.09,East,83,0.0,4.2,95,0.10,,---,1.40,VWS V14.01,2013-02-15 04:32:00,
2013-02-14 23:34:00,63.3,61.9,30.09,NNW,333,1.9,1.9,95,0.10,,---,1.40,VWS V14.01,2013-02-15 04:34:00,
2013-02-14 23:35:00,63.3,61.9,30.09,ENE,58,0.9,0.9,95,0.00,,---,1.40,VWS V14.01,2013-02-15 04:35:00,
2013-02-14 23:36:00,63.4,62.0,30.09,NE,38,0.0,0.0,95,0.00,,---,1.40,VWS V14.01,2013-02-15 04:36:00,
2013-02-14 23:37:00,63.3,61.9,30.09,NE,38,0.0,0.0,95,0.00,,---,1.40,VWS V14.01,2013-02-15 04:37:00,
2013-02-14 23:39:00,63.4,62.0,30.09,ENE,58,0.0,0.0,95,0.00,,---,1.40,VWS V14.01,2013-02-15 04:39:00,
2013-02-14 23:41:00,63.3,61.9,30.09,ENE,76,2.3,3.7,95,0.00,,---,1.40,VWS V14.01,2013-02-15 04:41:00,
2013-02-14 23:42:00,63.3,61.9,30.09,East,91,2.7,4.8,95,0.00,,---,1.40,VWS V14.01,2013-02-15 04:42:00,
2013-02-14 23:45:00,63.3,61.9,30.09,ENE,77,1.6,1.6,95,0.00,,---,1.40,VWS V14.01,2013-02-15 04:45:00,
2013-02-14 23:59:00,63.9,62.5,30.09,North,352,2.1,10.6,95,0.00,,---,0.00,VWS V14.01,2013-02-15 04:59:00,